Flight Track Log - Related Links

Times and Time Zones

All times are in EDT time to prevent confusion due to time zone crossing. See the UAL139 flight status page for this flight to view local times or setup timezone preferences in your user account.


Time Position Orientation Groundspeed Altitude Reporting Facility
EDT Latitude Longitude Course Direction KTS MPH feet Rate Location/Type
Sat 05:05:15 PM 39.8410 -104.7290 180° South 203 234 5,300  Level FlightAware ADS-B
Sat 05:05:43 PM 39.8430 -104.7630 274° West 213 245 6,300 1,600 Climbing FlightAware ADS-B
Sat 05:06:15 PM 39.8620 -104.8020 302° West 254 292 6,900 1,333 Climbing FlightAware ADS-B
Sat 05:06:46 PM 39.8780 -104.8470 295° West 279 321 7,700 2,200 Climbing FlightAware ADS-B
Sat 05:07:15 PM 39.8840 -104.8980 279° West 289 333 9,100 2,632 Climbing FlightAware ADS-B
Sat 05:07:43 PM 39.8900 -104.9450 279° West 299 344 10,200 1,733 Climbing FlightAware ADS-B
Sat 05:08:45 PM 39.9040 -105.0680 278° West 354 407 11,700 1,400 Climbing FlightAware ADS-B
Sat 05:09:13 PM 39.9110 -105.1300 278° West 379 436 12,300 1,593 Climbing FlightAware ADS-B
Sat 05:10:38 PM 39.9351 -105.3349 279° West 423 487 14,700 1,816 Climbing FlightAware ADS-B (AAL / EKYT)
Sat 05:11:45 PM 39.9540 -105.5030 278° West 438 504 16,900 2,019 Climbing FlightAware ADS-B
Sat 05:12:22 PM 39.9658 -105.6049 279° West 446 513 18,200 1,738 Climbing FlightAware ADS-B (AAL / EKYT)
Sat 05:13:32 PM 39.9733 -105.7478 274° West 465 535 20,000 1,398 Climbing FlightAware ADS-B (AAL / EKYT)
Sat 05:14:05 PM 39.9730 -105.8910 270° West 480 552 20,600 1,297 Climbing FlightAware ADS-B
Sat 05:14:46 PM 39.9796 -106.0099 274° West 465 535 21,600 1,421 Climbing FlightAware ADS-B (AAL / EKYT)
Sat 05:15:21 PM 39.9853 -106.1150 274° West 492 566 22,400 1,367 Climbing FlightAware ADS-B (AAL / EKYT)
Sat 05:16:05 PM 39.9924 -106.2463 274° West 504 580 23,400 1,360 Climbing FlightAware ADS-B (AAL / EKYT)
Sat 05:16:36 PM 39.9968 -106.3298 274° West 510 587 24,100 1,259 Climbing FlightAware ADS-B (AAL / EKYT)
Sat 05:17:26 PM 40.0106 -106.4960 276° West 519 597 25,100 1,133 Climbing FlightAware ADS-B (AAL / EKYT)
Sat 05:18:06 PM 40.0280 -106.6171 281° West 525 604 25,800 1,146 Climbing FlightAware ADS-B (AAL / EKYT)
Sat 05:18:55 PM 40.0487 -106.7616 281° West 531 611 26,800 1,302 Climbing FlightAware ADS-B (AAL / EKYT)
Sat 05:20:15 PM 40.0850 -107.0180 281° West 529 609 28,600 1,442 Climbing FlightAware ADS-B
Sat 05:20:39 PM 40.0960 -107.1000 280° West 527 606 29,300 1,622 Climbing FlightAware ADS-B
Sat 05:21:29 PM 40.1180 -107.2550 281° West 521 600 30,600 1,692 Climbing FlightAware ADS-B
Sat 05:21:57 PM 40.1300 -107.3410 280° West 513 590 31,500 1,556 Climbing FlightAware ADS-B
Sat 05:22:50 PM 40.1510 -107.4970 280° West 508 585 32,700 1,357 Climbing FlightAware ADS-B
Sat 05:23:21 PM 40.1641 -107.5936 280° West 503 579 33,400 1,355 Climbing FlightAware ADS-B
Sat 05:23:52 PM 40.1759 -107.6821 280° West 499 574 34,100 1,180 Climbing FlightAware ADS-B
Sat 05:24:22 PM 40.1881 -107.7728 280° West 499 574 34,600 900 Climbing FlightAware ADS-B
Sat 05:24:52 PM 40.1996 -107.8593 280° West 499 574 35,000 900 Climbing FlightAware ADS-B
Sat 05:25:22 PM 40.2115 -107.9495 280° West 498 573 35,500 984 Climbing FlightAware ADS-B
Sat 05:25:53 PM 40.2241 -108.0455 280° West 494 568 36,000 492 Climbing FlightAware ADS-B
Sat 05:26:23 PM 40.2352 -108.1309 280° West 490 564 36,000  Level FlightAware ADS-B
Sat 05:26:53 PM 40.2460 -108.2141 280° West 488 562 36,000  Level FlightAware ADS-B
Sat 05:27:23 PM 40.2570 -108.2989 280° West 488 562 36,000  Level FlightAware ADS-B
Sat 05:27:53 PM 40.2688 -108.3911 280° West 488 562 36,000  Level FlightAware ADS-B
Sat 05:28:23 PM 40.2802 -108.4812 279° West 488 562 36,000  Level FlightAware ADS-B
Sat 05:28:53 PM 40.2905 -108.5627 279° West 488 562 36,000  Level FlightAware ADS-B
Sat 05:29:30 PM 40.3044 -108.6733 279° West 488 562 36,000  Level FlightAware ADS-B
Sat 05:30:03 PM 40.3164 -108.7693 279° West 487 560 36,000  Level FlightAware ADS-B
Sat 05:30:33 PM 40.3274 -108.8581 279° West 486 559 36,000  Level FlightAware ADS-B
Sat 05:31:06 PM 40.3379 -108.9438 279° West 485 558 36,000  Level FlightAware ADS-B
Sat 05:31:45 PM 40.3531 -109.0680 279° West 482 555 36,000  Level FlightAware ADS-B
Sat 05:32:16 PM 40.3638 -109.1572 279° West 482 555 36,000  Level FlightAware ADS-B
Sat 05:33:06 PM 40.3737 -109.2906 276° West 482 555 36,000  Level FlightAware ADS-B
Sat 05:33:36 PM 40.3767 -109.3843 272° West 481 554 36,000  Level FlightAware ADS-B
Sat 05:33:50 PM 40.3783 -109.4337 273° West 479 551 36,000  Level FlightAware ADS-B (KGUC)
Sat 05:34:26 PM 40.3814 -109.5298 272° West 478 550 36,000  Level FlightAware ADS-B
Sat 05:34:56 PM 40.3841 -109.6190 272° West 479 551 36,000  Level FlightAware ADS-B
Sat 05:35:35 PM 40.3862 -109.6898 272° West 481 554 36,000  Level FlightAware ADS-B
Sat 05:36:47 PM 40.3935 -109.9433 272° West 481 554 36,000  Level FlightAware ADS-B
Sat 05:37:27 PM 40.3965 -110.0551 272° West 481 554 36,000  Level FlightAware ADS-B
Sat 05:37:57 PM 40.3990 -110.1483 272° West 482 555 36,000  Level FlightAware ADS-B
Sat 05:38:37 PM 40.4019 -110.2651 272° West 484 557 36,000  Level FlightAware ADS-B
Sat 05:38:52 PM 40.4030 -110.3080 272° West 484 557 36,000  Level FlightAware ADS-B
Sat 05:39:07 PM 40.4036 -110.3359 272° West 484 557 36,000  Level FlightAware ADS-B
Sat 05:39:23 PM 40.4051 -110.3980 272° West 484 557 36,000  Level FlightAware ADS-B
Sat 05:39:37 PM 40.4060 -110.4389 272° West 484 557 36,000  Level FlightAware ADS-B
Sat 05:39:53 PM 40.4072 -110.4880 272° West 484 557 36,000  Level FlightAware ADS-B
Sat 05:40:16 PM 40.4087 -110.5531 272° West 484 557 36,000  Level FlightAware ADS-B
Sat 05:40:24 PM 40.4093 -110.5780 272° West 484 557 36,000  Level FlightAware ADS-B
Sat 05:40:54 PM 40.4112 -110.6660 272° West 485 558 36,000  Level FlightAware ADS-B
Sat 05:40:57 PM 40.4114 -110.6750 271° West 485 558 36,000  Level FlightAware ADS-B
Sat 05:41:25 PM 40.4131 -110.7550 272° West 486 559 36,000  Level FlightAware ADS-B
Sat 05:41:43 PM 40.4140 -110.8060 271° West 485 558 36,000  Level FlightAware ADS-B (KGUC)
Sat 05:41:55 PM 40.4148 -110.8450 271° West 485 558 36,000  Level FlightAware ADS-B
Sat 05:42:25 PM 40.4165 -110.9340 271° West 485 558 36,000  Level FlightAware ADS-B
Sat 05:43:01 PM 40.4184 -111.0390 271° West 483 556 36,000  Level FlightAware ADS-B
Sat 05:43:16 PM 40.4184 -111.0389 57° Northeast 483 556 36,000  Level FlightAware ADS-B
Sat 05:43:35 PM 40.4201 -111.1370 271° West 483 556 36,000  Level FlightAware ADS-B
Sat 05:43:57 PM 40.4212 -111.1979 271° West 484 557 36,000  Level FlightAware ADS-B
Sat 05:44:05 PM 40.4216 -111.2240 271° West 484 557 36,000  Level FlightAware ADS-B
Sat 05:44:35 PM 40.4231 -111.3130 271° West 485 558 36,000  Level FlightAware ADS-B
Sat 05:45:06 PM 40.4245 -111.4040 271° West 486 559 36,000  Level FlightAware ADS-B
Sat 05:45:08 PM 40.4246 -111.4111 271° West 486 559 36,000  Level FlightAware ADS-B
Sat 05:45:37 PM 40.4258 -111.4950 271° West 486 559 36,000  Level FlightAware ADS-B
Sat 05:45:39 PM 40.4258 -111.4905 91° East 486 559 36,000  Level FlightAware ADS-B
Sat 05:46:07 PM 40.4271 -111.5850 271° West 486 559 36,000  Level FlightAware ADS-B
Sat 05:46:38 PM 40.4282 -111.6750 271° West 486 559 36,000  Level FlightAware ADS-B
Sat 05:46:44 PM 40.4285 -111.6937 271° West 486 559 36,000  Level FlightAware ADS-B
Sat 05:47:11 PM 40.4294 -111.7710 271° West 485 558 36,000  Level FlightAware ADS-B
Sat 05:47:14 PM 40.4295 -111.7801 271° West 486 559 36,000  Level FlightAware ADS-B
Sat 05:47:41 PM 40.4304 -111.8600 271° West 485 558 36,000  Level FlightAware ADS-B
Sat 05:48:03 PM 40.4311 -111.9257 271° West 485 558 36,000  Level FlightAware ADS-B
Sat 05:48:12 PM 40.4314 -111.9520 271° West 485 558 36,000  Level FlightAware ADS-B
Sat 05:48:43 PM 40.4323 -112.0420 271° West 487 560 36,000  Level FlightAware ADS-B
Sat 05:48:44 PM 40.4323 -112.0446 269° West 487 560 36,000  Level FlightAware ADS-B
Sat 05:49:13 PM 40.4330 -112.1320 271° West 488 562 36,000  Level FlightAware ADS-B
Sat 05:49:23 PM 40.4333 -112.1597 271° West 489 563 36,000  Level FlightAware ADS-B
Sat 05:49:45 PM 40.4338 -112.2260 271° West 491 565 36,000  Level FlightAware ADS-B
Sat 05:50:14 PM 40.4344 -112.3083 271° West 492 566 36,000  Level FlightAware ADS-B
Sat 05:50:15 PM 40.4345 -112.3170 271° West 492 566 36,000  Level FlightAware ADS-B
Sat 05:50:46 PM 40.4351 -112.4060 271° West 490 564 36,000  Level FlightAware ADS-B
Sat 05:51:14 PM 40.4355 -112.4770 270° West 490 564 36,000  Level FlightAware ADS-B
Sat 05:51:17 PM 40.4356 -112.4980 270° West 490 564 36,000  Level FlightAware ADS-B
Sat 05:51:47 PM 40.4362 -112.5900 271° West 491 565 36,000  Level FlightAware ADS-B
Sat 05:52:17 PM 40.4368 -112.6800 271° West 492 566 36,000  Level FlightAware ADS-B
Sat 05:52:24 PM 40.4369 -112.6970 270° West 492 566 36,000  Level FlightAware ADS-B
Sat 05:52:48 PM 40.4373 -112.7700 270° West 492 566 36,000  Level FlightAware ADS-B
Sat 05:53:03 PM 40.4376 -112.8160 270° West 492 566 36,000  Level FlightAware ADS-B
Sat 05:53:18 PM 40.4378 -112.8600 270° West 492 566 36,000  Level FlightAware ADS-B
Sat 05:53:44 PM 40.4381 -112.9369 270° West 491 565 36,000  Level FlightAware ADS-B
Sat 05:53:48 PM 40.4382 -112.9490 271° West 491 565 36,000  Level FlightAware ADS-B
Sat 05:54:21 PM 40.4385 -113.0480 270° West 488 562 36,000  Level FlightAware ADS-B
Sat 05:54:52 PM 40.4387 -113.1400 270° West 487 560 36,000  Level FlightAware ADS-B
Sat 05:55:14 PM 40.4388 -113.2034 270° West 487 560 36,000  Level FlightAware ADS-B
Sat 05:55:23 PM 40.4388 -113.2310 270° West 486 559 36,000  Level FlightAware ADS-B
Sat 05:55:54 PM 40.4389 -113.3210 270° West 487 560 36,000  Level FlightAware ADS-B
Sat 05:56:24 PM 40.4389 -113.4100 270° West 488 562 36,000  Level FlightAware ADS-B
Sat 05:56:44 PM 40.4389 -113.4683 270° West 488 562 36,000  Level FlightAware ADS-B
Sat 05:56:55 PM 40.4389 -113.5010 270° West 487 560 36,000  Level FlightAware ADS-B
Sat 05:57:27 PM 40.4388 -113.5940 270° West 487 560 36,000  Level FlightAware ADS-B
Sat 05:57:35 PM 40.4387 -113.6187 270° West 487 560 36,000  Level FlightAware ADS-B
Sat 05:57:58 PM 40.4386 -113.6850 270° West 488 562 36,000  Level FlightAware ADS-B
Sat 05:58:05 PM 40.4385 -113.7060 270° West 488 562 36,000  Level FlightAware ADS-B
Sat 05:58:28 PM 40.4383 -113.7750 270° West 489 563 36,000  Level FlightAware ADS-B
Sat 05:58:35 PM 40.4383 -113.7947 270° West 489 563 36,000  Level FlightAware ADS-B
Sat 05:58:58 PM 40.4380 -113.8650 270° West 490 564 36,000  Level FlightAware ADS-B
Sat 05:59:23 PM 40.4376 -113.9353 270° West 490 564 36,000  Level FlightAware ADS-B
Sat 05:59:29 PM 40.4376 -113.9560 270° West 490 564 36,000  Level FlightAware ADS-B
Sat 06:00:24 PM 40.4366 -114.1180 270° West 491 565 36,000  Level FlightAware ADS-B
Sat 06:00:54 PM 40.4360 -114.2080 270° West 490 564 36,000  Level FlightAware ADS-B
Sat 06:00:55 PM 40.4360 -114.2105 271° West 490 564 36,000  Level FlightAware ADS-B
Sat 06:01:25 PM 40.4353 -114.3010 269° West 491 565 36,000  Level FlightAware ADS-B
Sat 06:01:59 PM 40.4345 -114.4020 269° West 491 565 36,000  Level FlightAware ADS-B
Sat 06:02:32 PM 40.4336 -114.4990 269° West 489 563 36,000  Level FlightAware ADS-B
Sat 06:03:22 PM 40.4320 -114.6480 269° West 489 563 36,000  Level FlightAware ADS-B
Sat 06:03:53 PM 40.4309 -114.7380 269° West 488 562 36,000  Level FlightAware ADS-B
Sat 06:04:23 PM 40.4299 -114.8270 269° West 488 562 36,000  Level FlightAware ADS-B
Sat 06:04:53 PM 40.4287 -114.9170 269° West 489 563 36,000  Level FlightAware ADS-B
Sat 06:05:07 PM 40.4282 -114.9588 269° West 490 564 36,000  Level FlightAware ADS-B
Sat 06:05:24 PM 40.4275 -115.0090 269° West 491 565 36,000  Level FlightAware ADS-B
Sat 06:05:59 PM 40.4260 -115.1130 269° West 491 565 36,000  Level FlightAware ADS-B
Sat 06:06:31 PM 40.4246 -115.2060 269° West 490 564 36,000  Level FlightAware ADS-B
Sat 06:07:03 PM 40.4230 -115.2960 269° West 487 560 36,000  Level FlightAware ADS-B
Sat 06:07:33 PM 40.4220 -115.3820 269° West 487 560 36,000  Level FlightAware ADS-B
Sat 06:08:22 PM 40.4190 -115.5290 269° West 485 558 36,000  Level FlightAware ADS-B
Sat 06:09:26 PM 40.4170 -115.6960 269° West 485 558 36,000  Level FlightAware ADS-B
Sat 06:10:04 PM 40.4150 -115.7910 268° West 485 558 36,000  Level FlightAware ADS-B
Sat 06:10:37 PM 40.4109 -115.9300 268° West 485 558 36,000  Level FlightAware ADS-B
Sat 06:11:07 PM 40.4089 -116.0180 268° West 485 558 36,000  Level FlightAware ADS-B
Sat 06:12:10 PM 40.4110 -116.1070 272° West 485 558 36,000  Level FlightAware ADS-B
Sat 06:12:56 PM 40.4090 -116.2220 269° West 485 558 36,000  Level FlightAware ADS-B
Sat 06:13:56 PM 40.4070 -116.3720 269° West 485 558 36,000  Level FlightAware ADS-B
Sat 06:14:46 PM 40.4060 -116.4970 269° West 485 558 36,000  Level FlightAware ADS-B
Sat 06:15:24 PM 40.4050 -116.5930 269° West 485 558 36,000  Level FlightAware ADS-B
Sat 06:16:24 PM 40.4020 -116.7430 269° West 485 558 36,000  Level FlightAware ADS-B
Sat 06:17:12 PM 40.4010 -116.8630 269° West 485 558 36,000  Level FlightAware ADS-B
Sat 06:17:48 PM 40.4000 -116.9530 269° West 485 558 36,000  Level FlightAware ADS-B
Sat 06:18:36 PM 40.3980 -117.0730 269° West 485 558 36,000  Level FlightAware ADS-B
Sat 06:21:32 PM 40.3527 -117.8475 266° West 484 557 36,000  Level FlightAware ADS-B
Sat 06:22:10 PM 40.3483 -117.9578 267° West 484 557 36,000  Level FlightAware ADS-B
Sat 06:22:40 PM 40.3454 -118.0307 267° West 484 557 36,000  Level FlightAware ADS-B
Sat 06:23:26 PM 40.3394 -118.1796 267° West 483 556 36,000  Level FlightAware ADS-B
Sat 06:23:56 PM 40.3361 -118.2574 267° West 481 554 36,000  Level FlightAware ADS-B
Sat 06:24:26 PM 40.3321 -118.3515 267° West 481 554 36,000  Level FlightAware ADS-B
Sat 06:24:56 PM 40.3286 -118.4311 267° West 482 555 36,000  Level FlightAware ADS-B
Sat 06:25:27 PM 40.3243 -118.5287 267° West 482 555 36,000  Level FlightAware ADS-B
Sat 06:26:18 PM 40.3182 -118.6644 267° West 484 557 36,000  Level FlightAware ADS-B
Sat 06:26:48 PM 40.3135 -118.7671 267° West 484 557 36,000  Level FlightAware ADS-B
Sat 06:27:34 PM 40.3072 -118.8991 266° West 485 558 36,000  Level FlightAware ADS-B
Sat 06:28:05 PM 40.3030 -118.9869 266° West 485 558 36,000  Level FlightAware ADS-B
Sat 06:28:43 PM 40.2977 -119.0940 266° West 486 559 36,000  Level FlightAware ADS-B
Sat 06:29:15 PM 40.2935 -119.1789 266° West 486 559 36,000  Level FlightAware ADS-B
Sat 06:29:57 PM 40.2864 -119.3176 266° West 486 559 36,000  Level FlightAware ADS-B
Sat 06:30:39 PM 40.2808 -119.4253 266° West 485 558 36,000  Level FlightAware ADS-B
Sat 06:31:12 PM 40.2750 -119.5390 266° West 485 558 36,000  Level FlightAware ADS-B
Sat 06:32:00 PM 40.2670 -119.6790 266° West 485 558 36,000  Level FlightAware ADS-B
Sat 06:32:56 PM 40.2580 -119.8430 266° West 484 557 36,000  Level FlightAware ADS-B
Sat 06:33:59 PM 40.2480 -120.0250 266° West 483 556 36,000  Level FlightAware ADS-B
Sat 06:34:20 PM 40.2440 -120.0860 265° West 483 556 36,000  Level FlightAware ADS-B
Sat 06:35:14 PM 40.2353 -120.2391 266° West 484 557 36,000  Level FlightAware ADS-B
Sat 06:35:44 PM 40.2299 -120.3292 266° West 483 556 36,000  Level FlightAware ADS-B
Sat 06:36:26 PM 40.2223 -120.4530 265° West 484 557 36,000  Level FlightAware ADS-B
Sat 06:36:57 PM 40.2169 -120.5413 265° West 483 556 36,000  Level FlightAware ADS-B
Sat 06:37:43 PM 40.2084 -120.6755 265° West 484 557 36,000  Level FlightAware ADS-B
Sat 06:38:22 PM 40.2010 -120.7913 265° West 485 558 36,000  Level FlightAware ADS-B
Sat 06:39:02 PM 40.1937 -120.9050 265° West 485 558 36,000  Level FlightAware ADS-B
Sat 06:39:32 PM 40.1879 -120.9923 265° West 485 558 36,000  Level FlightAware ADS-B
Sat 06:40:02 PM 40.1819 -121.0828 265° West 485 558 36,000  Level FlightAware ADS-B
Sat 06:40:46 PM 40.1763 -121.2100 267° West 486 559 36,000  Level FlightAware ADS-B
Sat 06:41:16 PM 40.1756 -121.2963 269° West 486 559 36,000  Level FlightAware ADS-B
Sat 06:41:58 PM 40.1746 -121.4225 269° West 487 560 36,000  Level FlightAware ADS-B
Sat 06:42:28 PM 40.1739 -121.5018 269° West 487 560 36,000  Level FlightAware ADS-B
Sat 06:42:58 PM 40.1730 -121.5953 269° West 487 560 36,000  Level FlightAware ADS-B
Sat 06:43:38 PM 40.1717 -121.7153 269° West 488 562 36,000  Level FlightAware ADS-B
Sat 06:44:09 PM 40.1709 -121.7929 269° West 490 564 36,000  Level FlightAware ADS-B
Sat 06:44:39 PM 40.1697 -121.8942 269° West 491 565 36,000  Level FlightAware ADS-B
Sat 06:45:18 PM 40.1683 -122.0007 269° West 491 565 36,000  Level FlightAware ADS-B
Sat 06:46:00 PM 40.1672 -122.0878 269° West 492 566 36,000  Level FlightAware ADS-B
Sat 06:46:44 PM 40.1650 -122.2650 269° West 492 566 36,000  Level FlightAware ADS-B
Sat 06:47:30 PM 40.1620 -122.4010 268° West 492 566 36,000  Level FlightAware ADS-B
Sat 06:47:54 PM 40.1600 -122.4740 268° West 493 567 36,000  Level FlightAware ADS-B
Sat 06:48:46 PM 40.1560 -122.6270 268° West 492 566 36,000  Level FlightAware ADS-B
Sat 06:49:26 PM 40.1530 -122.7450 268° West 490 564 36,000  Level FlightAware ADS-B
Sat 06:49:54 PM 40.1510 -122.8290 268° West 490 564 36,000  Level FlightAware ADS-B
Sat 06:50:44 PM 40.1480 -122.9720 268° West 491 565 36,000  Level FlightAware ADS-B
Sat 06:51:29 PM 40.1440 -123.1040 268° West 491 565 36,000  Level FlightAware ADS-B
Sat 06:52:04 PM 40.1410 -123.2100 268° West 491 565 36,000  Level FlightAware ADS-B
Sat 06:52:29 PM 40.1390 -123.2860 268° West 491 565 36,000  Level FlightAware ADS-B
Sat 06:53:09 PM 40.1360 -123.4000 268° West 492 566 36,000  Level FlightAware ADS-B
Sat 06:54:10 PM 40.1290 -123.5540 267° West 492 566 36,000  Level FlightAware ADS-B
Sat 06:54:58 PM 40.1250 -123.6750 268° West 492 566 36,000  Level FlightAware ADS-B
Sat 06:55:59 PM 40.1190 -123.9050 268° West 499 574 36,000  Level FlightAware ADS-B
Sat 06:56:30 PM 40.1160 -123.9910 267° West 499 574 36,000  Level FlightAware ADS-B
Sat 06:57:09 PM 40.1120 -124.1120 268° West 500 575 36,000  Level FlightAware ADS-B
Sat 06:58:29 PM 40.1030 -124.3550 267° West 501 577 36,000  Level FlightAware ADS-B
Sat 06:59:06 PM 40.0990 -124.4620 267° West 501 577 36,000  Level FlightAware ADS-B
Sat 07:00:06 PM 40.0950 -124.6170 268° West 501 577 36,000  Level FlightAware ADS-B
Sat 07:00:54 PM 40.0920 -124.7400 268° West 501 577 36,000  Level FlightAware ADS-B
Sat 07:01:42 PM 40.0890 -124.8640 268° West 501 577 36,000  Level FlightAware ADS-B
Sat 07:03:10 PM 40.0680 -125.1810 265° West 501 577 36,000  Level FlightAware ADS-B
Sat 07:03:34 PM 40.0660 -125.2430 268° West 501 577 36,000  Level FlightAware ADS-B
Sat 07:04:34 PM 40.0600 -125.3970 267° West 501 577 36,000  Level FlightAware ADS-B
Sat 07:05:23 PM 40.0550 -125.5230 267° West 501 577 36,000  Level FlightAware ADS-B
Sat 07:06:11 PM 40.0500 -125.6460 267° West 501 577 36,000  Level FlightAware ADS-B
Sat 07:06:59 PM 40.0450 -125.7690 267° West 501 577 36,000  Level FlightAware ADS-B
Sat 07:07:47 PM 40.0400 -125.8930 267° West 501 577 36,000  Level FlightAware ADS-B
Sat 07:08:12 PM 40.0370 -125.9570 267° West 501 577 36,000  Level FlightAware ADS-B
Sat 07:09:02 PM 40.0320 -126.0860 267° West 501 577 36,000  Level FlightAware ADS-B
Sat 07:09:50 PM 40.0270 -126.2090 267° West 501 577 36,000  Level FlightAware ADS-B
Sat 07:10:39 PM 40.0220 -126.3350 267° West 501 577 36,000  Level FlightAware ADS-B
Sat 07:11:03 PM 40.0200 -126.3960 268° West 501 577 36,000  Level FlightAware ADS-B
Sat 07:11:56 PM 40.0140 -126.5330 267° West 501 577 36,000  Level FlightAware ADS-B
Sat 07:12:45 PM 40.1269 -126.9200 267° West 509 586 36,000  Level Oakland Center
Sat 07:13:18 PM 40.1500 -127.0000 291° West 511 588 36,000  Level Oakland Oceanic (ODAPS)
Sat 07:16:06 PM 40.3000 -127.5000 291° West 512 589 36,000  Level Oakland Oceanic (ODAPS)
Sat 07:20:00 PM 40.5134 -128.2368 291° West 511 588 36,000  Level FlightAware Transoceanic
Sat 07:21:00 PM 40.5643 -128.4146 291° West 511 588 36,000  Level FlightAware Transoceanic
Sat 07:22:00 PM 40.6101 -128.5735 290° West 512 589 36,000  Level FlightAware Transoceanic
Sat 07:23:00 PM 40.6608 -128.7534 290° West 512 589 36,000  Level FlightAware Transoceanic
Sat 07:24:00 PM 40.7112 -128.9336 290° West 512 589 36,000  Level FlightAware Transoceanic
Sat 07:25:00 PM 40.7614 -129.1140 290° West 512 589 36,000  Level FlightAware Transoceanic
Sat 07:26:00 PM 40.8113 -129.2947 290° West 512 589 36,000  Level FlightAware Transoceanic
Sat 07:27:00 PM 40.8609 -129.4757 290° West 512 589 36,000  Level FlightAware Transoceanic
Sat 07:28:00 PM 40.9102 -129.6569 290° West 512 589 36,000  Level FlightAware Transoceanic
Sat 07:29:00 PM 40.9592 -129.8384 290° West 512 589 36,000 526 Level FlightAware Transoceanic
Sat 07:29:54 PM 40.9833 -129.9333 290° West 509 586 37,000  Climbing Oakland Oceanic (ODAPS)
Sat 07:30:00 PM 41.0079 -130.0202 289° West 512 589 36,000 -909 Descending FlightAware Transoceanic
Sat 07:31:00 PM 41.0564 -130.2023 289° West 512 589 36,000  Level FlightAware Transoceanic
Sat 07:32:00 PM 41.1045 -130.3846 289° West 512 589 36,000  Level FlightAware Transoceanic
Sat 07:33:00 PM 41.1524 -130.5672 289° West 512 589 36,000  Level FlightAware Transoceanic
Sat 07:34:00 PM 41.2000 -130.7500 288° West 512 589 36,000 600 Level FlightAware Transoceanic
Sat 07:34:40 PM 41.2000 -130.7500 288° West 500 575 37,000  Climbing Oakland Oceanic (ODAPS)
Sat 07:35:00 PM 41.2415 -130.9227 288° West 512 589 36,000  Descending FlightAware Transoceanic
Sat 07:36:00 PM 41.2827 -131.0956 288° West 509 586 37,000 500 Climbing FlightAware Transoceanic
Sat 07:37:00 PM 41.3237 -131.2688 287° West 509 586 37,000  Level FlightAware Transoceanic
Sat 07:38:00 PM 41.3644 -131.4421 287° West 509 586 37,000  Level FlightAware Transoceanic
Sat 07:39:00 PM 41.4049 -131.6157 287° West 509 586 37,000  Level FlightAware Transoceanic
Sat 07:40:00 PM 41.4450 -131.7895 287° West 500 575 37,000  Level FlightAware Transoceanic
Sat 07:41:00 PM 41.4850 -131.9635 287° West 500 575 37,000  Level FlightAware Transoceanic
Sat 07:42:00 PM 41.5246 -132.1377 287° West 500 575 37,000  Level FlightAware Transoceanic
Sat 07:43:00 PM 41.5640 -132.3121 287° West 500 575 37,000  Level FlightAware Transoceanic
Sat 07:43:58 PM 41.5667 -132.3500 287° West 492 566 37,000  Level Oakland Oceanic (ODAPS)
Sat 07:44:00 PM 41.6032 -132.4868 287° West 500 575 37,000  Level FlightAware Transoceanic
Sat 07:45:00 PM 41.6421 -132.6617 287° West 500 575 37,000  Level FlightAware Transoceanic
Sat 07:46:00 PM 41.6807 -132.8367 286° West 500 575 37,000  Level FlightAware Transoceanic
Sat 07:47:00 PM 41.7190 -133.0120 286° West 500 575 37,000  Level FlightAware Transoceanic
Sat 07:48:00 PM 41.7571 -133.1875 286° West 500 575 37,000  Level FlightAware Transoceanic
Sat 07:49:00 PM 41.7949 -133.3632 286° West 500 575 37,000  Level FlightAware Transoceanic
Sat 07:50:00 PM 41.8022 -133.4209 286° West 492 566 37,000  Level FlightAware Transoceanic
Sat 07:51:00 PM 41.8405 -133.6001 286° West 492 566 37,000  Level FlightAware Transoceanic
Sat 07:52:00 PM 41.8785 -133.7796 286° West 492 566 37,000  Level FlightAware Transoceanic
Sat 07:53:00 PM 41.9162 -133.9592 286° West 492 566 37,000  Level FlightAware Transoceanic
Sat 07:54:00 PM 41.9537 -134.1391 286° West 492 566 37,000  Level FlightAware Transoceanic
Sat 07:55:00 PM 41.9909 -134.3192 285° West 492 566 37,000  Level FlightAware Transoceanic
Sat 07:56:00 PM 42.0277 -134.4995 285° West 492 566 37,000  Level FlightAware Transoceanic
Sat 07:57:00 PM 42.0644 -134.6800 285° West 492 566 37,000  Level FlightAware Transoceanic
Sat 07:57:44 PM 42.1000 -134.8000 285° West 490 564 37,000  Level Oakland Oceanic (ODAPS)
Sat 07:58:00 PM 42.1007 -134.8607 285° West 492 566 37,000  Level FlightAware Transoceanic
Sat 07:59:00 PM 42.1367 -135.0416 285° West 492 566 37,000  Level FlightAware Transoceanic
Sat 08:00:00 PM 42.1725 -135.2228 285° West 492 566 37,000  Level FlightAware Transoceanic
Sat 08:01:00 PM 42.2079 -135.4041 285° West 492 566 37,000  Level FlightAware Transoceanic
Sat 08:02:00 PM 42.2431 -135.5856 285° West 492 566 37,000  Level FlightAware Transoceanic
Sat 08:03:00 PM 42.2780 -135.7674 284° West 492 566 37,000  Level FlightAware Transoceanic
Sat 08:04:00 PM 42.3387 -136.0412 284° West 490 564 37,000  Level FlightAware Transoceanic
Sat 08:05:00 PM 42.3717 -136.2193 284° West 490 564 37,000  Level FlightAware Transoceanic
Sat 08:06:00 PM 42.4044 -136.3975 284° West 490 564 37,000  Level FlightAware Transoceanic
Sat 08:07:00 PM 42.4368 -136.5760 284° West 490 564 37,000  Level FlightAware Transoceanic
Sat 08:08:00 PM 42.4690 -136.7546 284° West 490 564 37,000  Level FlightAware Transoceanic
Sat 08:09:00 PM 42.5009 -136.9334 284° West 490 564 37,000  Level FlightAware Transoceanic
Sat 08:10:00 PM 42.5325 -137.1124 283° West 490 564 37,000  Level FlightAware Transoceanic
Sat 08:11:00 PM 42.5638 -137.2916 283° West 490 564 37,000  Level FlightAware Transoceanic
Sat 08:11:36 PM 42.5500 -137.2667 284° West 489 563 37,000  Level Oakland Oceanic (ODAPS)
Sat 08:12:00 PM 42.5949 -137.4709 283° West 490 564 37,000  Level FlightAware Transoceanic
Sat 08:13:00 PM 42.6257 -137.6505 283° West 490 564 37,000  Level FlightAware Transoceanic
Sat 08:14:00 PM 42.6562 -137.8302 283° West 490 564 37,000  Level FlightAware Transoceanic
Sat 08:15:00 PM 42.6864 -138.0101 283° West 490 564 37,000  Level FlightAware Transoceanic
Sat 08:16:00 PM 42.7163 -138.1901 283° West 490 564 37,000  Level FlightAware Transoceanic
Sat 08:17:00 PM 42.7378 -138.3552 283° West 489 563 37,000  Level FlightAware Transoceanic
Sat 08:18:00 PM 42.7681 -138.5373 283° West 489 563 37,000  Level FlightAware Transoceanic
Sat 08:19:00 PM 42.7981 -138.7195 283° West 489 563 37,000  Level FlightAware Transoceanic
Sat 08:20:00 PM 42.8278 -138.9019 282° West 489 563 37,000  Level FlightAware Transoceanic
Sat 08:21:00 PM 42.8572 -139.0845 282° West 489 563 37,000  Level FlightAware Transoceanic
Sat 08:22:00 PM 42.8864 -139.2673 282° West 489 563 37,000  Level FlightAware Transoceanic
Sat 08:23:00 PM 42.9152 -139.4502 282° West 489 563 37,000  Level FlightAware Transoceanic
Sat 08:24:00 PM 42.9438 -139.6333 282° West 489 563 37,000  Level FlightAware Transoceanic
Sat 08:25:00 PM 42.9720 -139.8166 282° West 489 563 37,000  Level FlightAware Transoceanic
Sat 08:25:27 PM 42.9667 -139.7500 280° West 482 555 37,000  Level Oakland Oceanic (ODAPS)
Sat 08:26:00 PM 43.0000 -140.0000 289° West 489 563 37,000  Level FlightAware Transoceanic
Sat 08:26:56 PM 43.0000 -140.0000 289° West 478 550 37,000  Level Oakland Oceanic (ODAPS)
Sat 08:27:00 PM 43.0424 -140.1694 289° West 489 563 37,000  Level FlightAware Transoceanic
Sat 08:28:00 PM 43.0846 -140.3389 289° West 489 563 37,000  Level FlightAware Transoceanic
Sat 08:29:00 PM 43.1266 -140.5088 289° West 489 563 37,000  Level FlightAware Transoceanic
Sat 08:30:00 PM 43.1683 -140.6788 289° West 489 563 37,000  Level FlightAware Transoceanic
Sat 08:31:00 PM 43.1712 -140.6910 289° West 482 555 37,000  Level FlightAware Transoceanic
Sat 08:32:00 PM 43.2134 -140.8643 288° West 482 555 37,000  Level FlightAware Transoceanic
Sat 08:33:00 PM 43.2553 -141.0379 288° West 478 550 37,000  Level FlightAware Transoceanic
Sat 08:34:00 PM 43.2969 -141.2117 288° West 478 550 37,000  Level FlightAware Transoceanic
Sat 08:35:00 PM 43.3383 -141.3858 288° West 478 550 37,000  Level FlightAware Transoceanic
Sat 08:36:00 PM 43.3794 -141.5601 288° West 478 550 37,000  Level FlightAware Transoceanic
Sat 08:37:00 PM 43.4202 -141.7346 288° West 478 550 37,000  Level FlightAware Transoceanic
Sat 08:38:00 PM 43.4608 -141.9094 288° West 478 550 37,000  Level FlightAware Transoceanic
Sat 08:39:00 PM 43.5011 -142.0844 288° West 478 550 37,000  Level FlightAware Transoceanic
Sat 08:39:18 PM 43.5167 -142.1667 288° West 478 550 37,000  Level Oakland Oceanic (ODAPS)
Sat 08:40:00 PM 43.5411 -142.2596 287° West 478 550 37,000  Level FlightAware Transoceanic
Sat 08:41:00 PM 43.5809 -142.4351 287° West 478 550 37,000  Level FlightAware Transoceanic
Sat 08:42:00 PM 43.6204 -142.6108 287° West 478 550 37,000  Level FlightAware Transoceanic
Sat 08:43:00 PM 43.6596 -142.7867 287° West 478 550 37,000  Level FlightAware Transoceanic
Sat 08:44:00 PM 43.6986 -142.9629 287° West 478 550 37,000  Level FlightAware Transoceanic
Sat 08:45:00 PM 43.7501 -143.2108 287° West 478 550 37,000  Level FlightAware Transoceanic
Sat 08:46:00 PM 43.7881 -143.3857 287° West 478 550 37,000  Level FlightAware Transoceanic
Sat 08:47:00 PM 43.8258 -143.5607 287° West 478 550 37,000  Level FlightAware Transoceanic
Sat 08:48:00 PM 43.8632 -143.7359 286° West 478 550 37,000  Level FlightAware Transoceanic
Sat 08:49:00 PM 43.9004 -143.9114 286° West 478 550 37,000  Level FlightAware Transoceanic
Sat 08:50:00 PM 43.9373 -144.0871 286° West 478 550 37,000  Level FlightAware Transoceanic
Sat 08:51:00 PM 43.9739 -144.2630 286° West 478 550 37,000  Level FlightAware Transoceanic
Sat 08:52:00 PM 44.0103 -144.4391 286° West 478 550 37,000  Level FlightAware Transoceanic
Sat 08:53:00 PM 44.0464 -144.6155 286° West 478 550 37,000  Level FlightAware Transoceanic
Sat 08:53:13 PM 44.0500 -144.6500 286° West 484 557 37,000  Level Oakland Oceanic (ODAPS)
Sat 08:54:00 PM 44.0822 -144.7921 286° West 478 550 37,000  Level FlightAware Transoceanic
Sat 08:55:00 PM 44.1177 -144.9688 286° West 478 550 37,000  Level FlightAware Transoceanic
Sat 08:56:00 PM 44.1530 -145.1458 285° West 478 550 37,000  Level FlightAware Transoceanic
Sat 08:57:00 PM 44.1880 -145.3230 285° West 478 550 37,000  Level FlightAware Transoceanic
Sat 08:58:00 PM 44.2228 -145.5004 285° West 478 550 37,000  Level FlightAware Transoceanic
Sat 08:59:00 PM 44.2669 -145.7423 285° West 484 557 37,000  Level FlightAware Transoceanic
Sat 09:00:00 PM 44.3021 -145.9251 285° West 484 557 37,000  Level FlightAware Transoceanic
Sat 09:01:00 PM 44.3369 -146.1082 285° West 484 557 37,000  Level FlightAware Transoceanic
Sat 09:02:00 PM 44.3714 -146.2914 285° West 484 557 37,000  Level FlightAware Transoceanic
Sat 09:03:00 PM 44.4057 -146.4749 285° West 484 557 37,000  Level FlightAware Transoceanic
Sat 09:04:00 PM 44.4397 -146.6586 284° West 484 557 37,000  Level FlightAware Transoceanic
Sat 09:05:00 PM 44.4734 -146.8425 284° West 484 557 37,000  Level FlightAware Transoceanic
Sat 09:06:00 PM 44.5067 -147.0266 284° West 484 557 37,000  Level FlightAware Transoceanic
Sat 09:07:00 PM 44.5398 -147.2109 284° West 484 557 37,000  Level FlightAware Transoceanic
Sat 09:07:04 PM 44.5167 -147.1000 284° West 470 541 37,000  Level Oakland Oceanic (ODAPS)
Sat 09:08:00 PM 44.5726 -147.3955 284° West 484 557 37,000  Level FlightAware Transoceanic
Sat 09:09:00 PM 44.6051 -147.5802 284° West 484 557 37,000  Level FlightAware Transoceanic
Sat 09:10:00 PM 44.6372 -147.7652 284° West 484 557 37,000  Level FlightAware Transoceanic
Sat 09:11:00 PM 44.6691 -147.9503 284° West 484 557 37,000  Level FlightAware Transoceanic
Sat 09:12:00 PM 44.7007 -148.1357 283° West 484 557 37,000  Level FlightAware Transoceanic
Sat 09:13:00 PM 44.7065 -148.1818 283° West 470 541 37,000  Level FlightAware Transoceanic
Sat 09:14:00 PM 44.7371 -148.3628 283° West 470 541 37,000  Level FlightAware Transoceanic
Sat 09:15:00 PM 44.7675 -148.5439 283° West 470 541 37,000  Level FlightAware Transoceanic
Sat 09:16:00 PM 44.7976 -148.7253 283° West 470 541 37,000  Level FlightAware Transoceanic
Sat 09:17:00 PM 44.8274 -148.9068 283° West 470 541 37,000  Level FlightAware Transoceanic
Sat 09:18:00 PM 44.8569 -149.0886 283° West 470 541 37,000  Level FlightAware Transoceanic
Sat 09:19:00 PM 44.8861 -149.2705 283° West 470 541 37,000  Level FlightAware Transoceanic
Sat 09:20:00 PM 44.9150 -149.4526 283° West 470 541 37,000  Level FlightAware Transoceanic
Sat 09:20:57 PM 44.9333 -149.5500 282° West 466 536 37,000  Level Oakland Oceanic (ODAPS)
Sat 09:21:00 PM 44.9436 -149.6349 282° West 470 541 37,000  Level FlightAware Transoceanic
Sat 09:22:00 PM 44.9720 -149.8174 282° West 470 541 37,000  Level FlightAware Transoceanic
Sat 09:23:00 PM 45.0000 -150.0000 297° West 470 541 37,000  Level FlightAware Transoceanic
Sat 09:23:29 PM 45.0000 -150.0000 297° West 479 551 37,000  Level Oakland Oceanic (ODAPS)
Sat 09:24:00 PM 45.0632 -150.1750 297° West 470 541 37,000  Level FlightAware Transoceanic
Sat 09:25:00 PM 45.1261 -150.3505 297° West 470 541 37,000  Level FlightAware Transoceanic
Sat 09:26:00 PM 45.1888 -150.5263 297° West 470 541 37,000  Level FlightAware Transoceanic
Sat 09:27:00 PM 45.2467 -150.6897 297° West 466 536 37,000  Level FlightAware Transoceanic
Sat 09:28:00 PM 45.3077 -150.8630 297° West 466 536 37,000  Level FlightAware Transoceanic
Sat 09:29:00 PM 45.3557 -151.0001 296° West 479 551 37,000  Level FlightAware Transoceanic
Sat 09:30:00 PM 45.4141 -151.1680 296° West 479 551 37,000  Level FlightAware Transoceanic
Sat 09:31:00 PM 45.4723 -151.3363 296° West 479 551 37,000  Level FlightAware Transoceanic
Sat 09:32:00 PM 45.5302 -151.5049 296° West 479 551 37,000  Level FlightAware Transoceanic
Sat 09:33:00 PM 45.5879 -151.6738 296° West 479 551 37,000  Level FlightAware Transoceanic
Sat 09:34:00 PM 45.6453 -151.8431 296° West 479 551 37,000 566 Level FlightAware Transoceanic
Sat 09:34:46 PM 45.6667 -151.9000 296° West 479 551 38,000  Climbing Oakland Oceanic (ODAPS)
Sat 09:35:00 PM 45.7025 -152.0128 296° West 479 551 37,000 -811 Descending FlightAware Transoceanic
Sat 09:36:00 PM 45.7594 -152.1827 296° West 479 551 37,000  Level FlightAware Transoceanic
Sat 09:37:00 PM 45.8161 -152.3531 295° West 479 551 37,000  Level FlightAware Transoceanic
Sat 09:38:00 PM 45.8726 -152.5237 295° West 479 551 37,000  Level FlightAware Transoceanic
Sat 09:39:00 PM 45.9287 -152.6948 295° West 479 551 37,000  Level FlightAware Transoceanic
Sat 09:40:00 PM 45.9846 -152.8661 295° West 479 551 37,000 500 Level FlightAware Transoceanic
Sat 09:41:00 PM 46.0101 -152.9390 295° West 479 551 38,000 500 Climbing FlightAware Transoceanic
Sat 09:42:00 PM 46.0664 -153.1134 295° West 479 551 38,000  Level FlightAware Transoceanic
Sat 09:43:00 PM 46.1225 -153.2881 295° West 479 551 38,000  Level FlightAware Transoceanic
Sat 09:44:00 PM 46.1783 -153.4633 295° West 479 551 38,000  Level FlightAware Transoceanic
Sat 09:45:00 PM 46.2338 -153.6387 295° West 479 551 38,000  Level FlightAware Transoceanic
Sat 09:46:00 PM 46.2891 -153.8145 294° West 479 551 38,000  Level FlightAware Transoceanic
Sat 09:47:00 PM 46.3440 -153.9907 294° West 479 551 38,000  Level FlightAware Transoceanic
Sat 09:48:00 PM 46.3988 -154.1673 294° West 479 551 38,000 594 Level FlightAware Transoceanic
Sat 09:48:41 PM 46.4167 -154.2500 294° West 476 548 39,000  Climbing Oakland Oceanic (ODAPS)
Sat 09:49:00 PM 46.4532 -154.3442 294° West 479 551 38,000 -759 Descending FlightAware Transoceanic
Sat 09:50:00 PM 46.5074 -154.5214 294° West 479 551 38,000  Level FlightAware Transoceanic
Sat 09:51:00 PM 46.5612 -154.6990 294° West 479 551 38,000  Level FlightAware Transoceanic
Sat 09:52:00 PM 46.6149 -154.8769 294° West 479 551 38,000  Level FlightAware Transoceanic
Sat 09:53:00 PM 46.6682 -155.0552 293° West 479 551 38,000 500 Level FlightAware Transoceanic
Sat 09:54:00 PM 46.7352 -155.3018 293° West 476 548 39,000 500 Climbing FlightAware Transoceanic
Sat 09:55:00 PM 46.7873 -155.4783 293° West 476 548 39,000  Level FlightAware Transoceanic
Sat 09:56:00 PM 46.8392 -155.6551 293° West 476 548 39,000  Level FlightAware Transoceanic
Sat 09:57:00 PM 46.8908 -155.8323 293° West 476 548 39,000  Level FlightAware Transoceanic
Sat 09:58:00 PM 46.9421 -156.0098 293° West 476 548 39,000  Level FlightAware Transoceanic
Sat 09:59:00 PM 46.9932 -156.1877 293° West 476 548 39,000  Level FlightAware Transoceanic
Sat 10:00:00 PM 47.0440 -156.3659 293° West 476 548 39,000  Level FlightAware Transoceanic
Sat 10:01:00 PM 47.0945 -156.5444 292° West 476 548 39,000  Level FlightAware Transoceanic
Sat 10:02:00 PM 47.1447 -156.7233 292° West 476 548 39,000  Level FlightAware Transoceanic
Sat 10:02:29 PM 47.1500 -156.7167 292° West 493 567 39,000  Level Oakland Oceanic (ODAPS)
Sat 10:03:00 PM 47.1946 -156.9025 292° West 476 548 39,000  Level FlightAware Transoceanic
Sat 10:04:00 PM 47.2443 -157.0820 292° West 476 548 39,000  Level FlightAware Transoceanic
Sat 10:05:00 PM 47.2937 -157.2619 292° West 476 548 39,000  Level FlightAware Transoceanic
Sat 10:06:00 PM 47.3428 -157.4422 292° West 476 548 39,000  Level FlightAware Transoceanic
Sat 10:07:00 PM 47.3916 -157.6227 292° West 476 548 39,000  Level FlightAware Transoceanic
Sat 10:08:00 PM 47.4437 -157.7992 291° West 493 567 39,000  Level FlightAware Transoceanic
Sat 10:09:00 PM 47.4917 -157.9808 291° West 493 567 39,000  Level FlightAware Transoceanic
Sat 10:10:00 PM 47.5393 -158.1628 291° West 493 567 39,000  Level FlightAware Transoceanic
Sat 10:11:00 PM 47.5867 -158.3450 291° West 493 567 39,000  Level FlightAware Transoceanic
Sat 10:12:00 PM 47.6338 -158.5276 291° West 493 567 39,000  Level FlightAware Transoceanic
Sat 10:13:00 PM 47.6806 -158.7105 291° West 493 567 39,000  Level FlightAware Transoceanic
Sat 10:14:00 PM 47.7271 -158.8937 291° West 493 567 39,000  Level FlightAware Transoceanic
Sat 10:15:00 PM 47.7733 -159.0773 290° West 493 567 39,000  Level FlightAware Transoceanic
Sat 10:16:00 PM 47.8193 -159.2612 290° West 493 567 39,000  Level FlightAware Transoceanic
Sat 10:16:24 PM 47.8333 -159.3000 290° West 494 568 39,000  Level Oakland Oceanic (ODAPS)
Sat 10:17:00 PM 47.8649 -159.4454 290° West 493 567 39,000  Level FlightAware Transoceanic
Sat 10:18:00 PM 47.9102 -159.6299 290° West 493 567 39,000  Level FlightAware Transoceanic
Sat 10:19:00 PM 47.9553 -159.8148 290° West 493 567 39,000  Level FlightAware Transoceanic
Sat 10:20:00 PM 48.0000 -160.0000 291° West 493 567 39,000  Level FlightAware Transoceanic
Sat 10:21:00 PM 48.0416 -160.1653 291° West 493 567 39,000  Level FlightAware Transoceanic
Sat 10:21:29 PM 48.0000 -160.0000 291° West 485 558 39,000  Level Oakland Oceanic (ODAPS)
Sat 10:22:00 PM 48.0816 -160.3253 290° West 494 568 39,000  Level FlightAware Transoceanic
Sat 10:23:00 PM 48.1221 -160.4883 290° West 494 568 39,000  Level FlightAware Transoceanic
Sat 10:24:00 PM 48.1623 -160.6516 290° West 494 568 39,000  Level FlightAware Transoceanic
Sat 10:25:00 PM 48.2023 -160.8151 290° West 494 568 39,000  Level FlightAware Transoceanic
Sat 10:26:00 PM 48.2421 -160.9789 290° West 494 568 39,000  Level FlightAware Transoceanic
Sat 10:27:00 PM 48.3247 -161.3234 290° West 485 558 39,000  Level FlightAware Transoceanic
Sat 10:28:00 PM 48.3699 -161.5138 290° West 485 558 39,000  Level FlightAware Transoceanic
Sat 10:29:00 PM 48.4147 -161.7045 289° West 485 558 39,000  Level FlightAware Transoceanic
Sat 10:30:00 PM 48.4593 -161.8956 289° West 485 558 39,000  Level FlightAware Transoceanic
Sat 10:30:50 PM 48.4667 -161.9167 289° West 502 578 39,000  Level Oakland Oceanic (ODAPS)
Sat 10:31:00 PM 48.5034 -162.0870 289° West 485 558 39,000  Level FlightAware Transoceanic
Sat 10:32:00 PM 48.5473 -162.2788 289° West 485 558 39,000  Level FlightAware Transoceanic
Sat 10:33:00 PM 48.5909 -162.4709 289° West 485 558 39,000  Level FlightAware Transoceanic
Sat 10:34:00 PM 48.6341 -162.6633 289° West 485 558 39,000  Level FlightAware Transoceanic
Sat 10:35:00 PM 48.6771 -162.8560 289° West 485 558 39,000  Level FlightAware Transoceanic
Sat 10:36:00 PM 48.7197 -163.0491 288° West 485 558 39,000  Level FlightAware Transoceanic
Sat 10:37:00 PM 48.7829 -163.3296 288° West 502 578 39,000  Level FlightAware Transoceanic
Sat 10:38:00 PM 48.8267 -163.5328 288° West 502 578 39,000  Level FlightAware Transoceanic
Sat 10:39:00 PM 48.8701 -163.7365 288° West 502 578 39,000  Level FlightAware Transoceanic
Sat 10:40:00 PM 48.9131 -163.9404 288° West 502 578 39,000  Level FlightAware Transoceanic
Sat 10:41:00 PM 48.9558 -164.1448 288° West 502 578 39,000  Level FlightAware Transoceanic
Sat 10:42:00 PM 48.9981 -164.3495 287° West 502 578 39,000  Level FlightAware Transoceanic
Sat 10:43:00 PM 49.0401 -164.5545 287° West 502 578 39,000  Level FlightAware Transoceanic
Sat 10:44:00 PM 49.0816 -164.7599 287° West 502 578 39,000  Level FlightAware Transoceanic
Sat 10:45:00 PM 49.1229 -164.9656 287° West 502 578 39,000  Level FlightAware Transoceanic
Sat 10:45:38 PM 49.0667 -164.7333 287° West 508 585 39,000  Level Oakland Oceanic (ODAPS)
Sat 10:46:00 PM 49.1637 -165.1716 287° West 502 578 39,000  Level FlightAware Transoceanic
Sat 10:47:00 PM 49.2042 -165.3780 287° West 502 578 39,000  Level FlightAware Transoceanic
Sat 10:48:00 PM 49.2444 -165.5848 286° West 502 578 39,000  Level FlightAware Transoceanic
Sat 10:49:00 PM 49.2841 -165.7918 286° West 502 578 39,000  Level FlightAware Transoceanic
Sat 10:50:00 PM 49.3235 -165.9992 286° West 502 578 39,000  Level FlightAware Transoceanic
Sat 10:51:00 PM 49.3625 -166.2070 286° West 502 578 39,000  Level FlightAware Transoceanic
Sat 10:52:00 PM 49.3912 -166.3965 286° West 508 585 39,000  Level FlightAware Transoceanic
Sat 10:53:00 PM 49.4301 -166.6060 286° West 508 585 39,000  Level FlightAware Transoceanic
Sat 10:54:00 PM 49.4686 -166.8157 286° West 508 585 39,000  Level FlightAware Transoceanic
Sat 10:55:00 PM 49.5067 -167.0258 286° West 508 585 39,000  Level FlightAware Transoceanic
Sat 10:56:00 PM 49.5445 -167.2362 285° West 508 585 39,000  Level FlightAware Transoceanic
Sat 10:57:00 PM 49.5818 -167.4469 285° West 508 585 39,000  Level FlightAware Transoceanic
Sat 10:58:00 PM 49.6188 -167.6580 285° West 508 585 39,000  Level FlightAware Transoceanic
Sat 10:58:39 PM 49.6167 -167.6000 285° West 507 583 39,000  Level Oakland Oceanic (ODAPS)
Sat 10:59:00 PM 49.6554 -167.8693 285° West 508 585 39,000  Level FlightAware Transoceanic
Sat 11:00:00 PM 49.6916 -168.0810 285° West 508 585 39,000  Level FlightAware Transoceanic
Sat 11:01:00 PM 49.7275 -168.2930 285° West 508 585 39,000  Level FlightAware Transoceanic
Sat 11:02:00 PM 49.7629 -168.5053 284° West 508 585 39,000  Level FlightAware Transoceanic
Sat 11:03:00 PM 49.7979 -168.7179 284° West 508 585 39,000  Level FlightAware Transoceanic
Sat 11:04:00 PM 49.8326 -168.9309 284° West 508 585 39,000  Level FlightAware Transoceanic
Sat 11:05:00 PM 49.8663 -169.1229 284° West 507 583 39,000  Level FlightAware Transoceanic
Sat 11:06:00 PM 49.9004 -169.3417 283° West 507 583 39,000  Level FlightAware Transoceanic
Sat 11:07:00 PM 49.9340 -169.5608 283° West 507 583 39,000  Level FlightAware Transoceanic
Sat 11:08:00 PM 49.9672 -169.7803 283° West 507 583 39,000  Level FlightAware Transoceanic
Sat 11:09:00 PM 50.0000 -170.0000 257° West 507 583 39,000  Level FlightAware Transoceanic
Sat 11:10:00 PM 49.9710 -170.1921 257° West 507 583 39,000  Level FlightAware Transoceanic
Sat 11:10:32 PM 49.9667 -170.2167 257° West 459 528 39,000  Level Oakland Oceanic (ODAPS)
Sat 11:11:00 PM 49.9417 -170.3840 257° West 507 583 39,000  Level FlightAware Transoceanic
Sat 11:11:53 PM 49.9167 -170.5000 257° West 500 575 39,000  Level Oakland Oceanic (ODAPS)
Sat 11:12:00 PM 49.9121 -170.5757 256° West 507 583 39,000  Level FlightAware Transoceanic
Sat 11:13:00 PM 49.8821 -170.7672 256° West 507 583 39,000  Level FlightAware Transoceanic
Sat 11:14:00 PM 49.8519 -170.9583 256° West 507 583 39,000  Level FlightAware Transoceanic
Sat 11:15:00 PM 49.8213 -171.1493 256° West 507 583 39,000  Level FlightAware Transoceanic
Sat 11:16:00 PM 49.7864 -171.3616 256° West 459 528 39,000  Level FlightAware Transoceanic
Sat 11:17:00 PM 49.7639 -171.4625 256° West 500 575 39,000  Level FlightAware Transoceanic
Sat 11:18:00 PM 49.7324 -171.6543 256° West 500 575 39,000  Level FlightAware Transoceanic
Sat 11:19:00 PM 49.7006 -171.8458 256° West 500 575 39,000  Level FlightAware Transoceanic
Sat 11:20:00 PM 49.6685 -172.0370 255° West 500 575 39,000  Level FlightAware Transoceanic
Sat 11:21:00 PM 49.6360 -172.2280 255° West 500 575 39,000  Level FlightAware Transoceanic
Sat 11:22:00 PM 49.6032 -172.4188 255° West 500 575 39,000  Level FlightAware Transoceanic
Sat 11:23:00 PM 49.5702 -172.6093 255° West 500 575 39,000  Level FlightAware Transoceanic
Sat 11:24:00 PM 49.5368 -172.7995 255° West 500 575 39,000  Level FlightAware Transoceanic
Sat 11:25:00 PM 49.5031 -172.9895 255° West 500 575 39,000  Level FlightAware Transoceanic
Sat 11:25:43 PM 49.4500 -173.3500 254° West 496 571 39,000  Level Oakland Oceanic (ODAPS)
Sat 11:26:00 PM 49.4691 -173.1792 255° West 500 575 39,000  Level FlightAware Transoceanic
Sat 11:27:00 PM 49.4348 -173.3687 254° West 500 575 39,000  Level FlightAware Transoceanic
Sat 11:28:00 PM 49.4001 -173.5578 254° West 500 575 39,000  Level FlightAware Transoceanic
Sat 11:29:00 PM 49.3652 -173.7468 254° West 500 575 39,000  Level FlightAware Transoceanic
Sat 11:30:00 PM 49.3299 -173.9354 254° West 500 575 39,000  Level FlightAware Transoceanic
Sat 11:31:00 PM 49.2944 -174.1238 254° West 500 575 39,000  Level FlightAware Transoceanic
Sat 11:32:00 PM 49.2054 -174.6371 253° West 496 571 39,000  Level FlightAware Transoceanic
Sat 11:33:00 PM 49.1693 -174.8199 253° West 496 571 39,000  Level FlightAware Transoceanic
Sat 11:34:00 PM 49.1329 -175.0024 253° West 496 571 39,000  Level FlightAware Transoceanic
Sat 11:35:00 PM 49.0962 -175.1847 253° West 496 571 39,000  Level FlightAware Transoceanic
Sat 11:36:00 PM 49.0592 -175.3667 253° West 496 571 39,000  Level FlightAware Transoceanic
Sat 11:37:00 PM 49.0219 -175.5484 253° West 496 571 39,000  Level FlightAware Transoceanic
Sat 11:38:00 PM 48.9844 -175.7299 252° West 496 571 39,000  Level FlightAware Transoceanic
Sat 11:39:00 PM 48.9466 -175.9111 252° West 496 571 39,000  Level FlightAware Transoceanic
Sat 11:39:33 PM 48.9000 -176.1333 252° West 492 566 39,000  Level Oakland Oceanic (ODAPS)
Sat 11:40:00 PM 48.9085 -176.0920 252° West 496 571 39,000  Level FlightAware Transoceanic
Sat 11:41:00 PM 48.8701 -176.2726 252° West 496 571 39,000  Level FlightAware Transoceanic
Sat 11:42:00 PM 48.8314 -176.4530 252° West 496 571 39,000  Level FlightAware Transoceanic
Sat 11:43:00 PM 48.7924 -176.6331 252° West 496 571 39,000  Level FlightAware Transoceanic
Sat 11:44:00 PM 48.7532 -176.8129 252° West 496 571 39,000  Level FlightAware Transoceanic
Sat 11:45:00 PM 48.6675 -177.2014 251° West 492 566 39,000  Level FlightAware Transoceanic
Sat 11:46:00 PM 48.6277 -177.3784 251° West 492 566 39,000  Level FlightAware Transoceanic
Sat 11:47:00 PM 48.5878 -177.5552 251° West 492 566 39,000  Level FlightAware Transoceanic
Sat 11:48:00 PM 48.5475 -177.7317 251° West 492 566 39,000  Level FlightAware Transoceanic
Sat 11:49:00 PM 48.5070 -177.9079 251° West 492 566 39,000  Level FlightAware Transoceanic
Sat 11:50:00 PM 48.4662 -178.0838 251° West 492 566 39,000  Level FlightAware Transoceanic
Sat 11:51:00 PM 48.4251 -178.2594 251° West 492 566 39,000  Level FlightAware Transoceanic
Sat 11:52:00 PM 48.3838 -178.4348 250° West 492 566 39,000  Level FlightAware Transoceanic
Sat 11:53:00 PM 48.3422 -178.6099 250° West 492 566 39,000  Level FlightAware Transoceanic
Sat 11:53:31 PM 48.3000 -178.7667 250° West 473 544 39,000  Level Oakland Oceanic (ODAPS)
Sat 11:54:00 PM 48.3004 -178.7846 250° West 492 566 39,000  Level FlightAware Transoceanic
Sat 11:55:00 PM 48.2582 -178.9591 250° West 492 566 39,000  Level FlightAware Transoceanic
Sat 11:56:00 PM 48.2159 -179.1333 250° West 492 566 39,000  Level FlightAware Transoceanic
Sat 11:57:00 PM 48.1732 -179.3073 250° West 492 566 39,000  Level FlightAware Transoceanic
Sat 11:58:00 PM 48.1303 -179.4809 250° West 492 566 39,000  Level FlightAware Transoceanic
Sat 11:59:00 PM 48.0437 -179.8247 250° West 473 544 39,000  Level FlightAware Transoceanic
Sun 12:00:00 AM 48.0000 -180.0000 244° Southwest 473 544 39,000  Level FlightAware Transoceanic
Sun 12:01:00 AM 47.9462 179.8376 244° Southwest 473 544 39,000  Level FlightAware Transoceanic
Sun 12:01:03 AM 48.0000 180.0000 244° Southwest 467 537 39,000  Level Oakland Oceanic (ODAPS)
Sun 12:02:00 AM 47.8922 179.6755 243° Southwest 473 544 39,000  Level FlightAware Transoceanic
Sun 12:03:00 AM 47.8379 179.5138 243° Southwest 473 544 39,000  Level FlightAware Transoceanic
Sun 12:04:00 AM 47.7835 179.3524 243° Southwest 473 544 39,000  Level FlightAware Transoceanic
Sun 12:05:00 AM 47.7287 179.1913 243° Southwest 473 544 39,000  Level FlightAware Transoceanic
Sun 12:06:00 AM 47.6738 179.0306 243° Southwest 473 544 39,000  Level FlightAware Transoceanic
Sun 12:07:00 AM 47.5937 178.7979 243° Southwest 467 537 39,000  Level FlightAware Transoceanic
Sun 12:07:24 AM 47.6000 178.8333 243° Southwest 455 524 39,000  Level Oakland Oceanic (ODAPS)
Sun 12:08:00 AM 47.5346 178.6277 243° Southwest 467 537 39,000  Level FlightAware Transoceanic
Sun 12:09:00 AM 47.4753 178.4579 243° Southwest 467 537 39,000  Level FlightAware Transoceanic
Sun 12:10:00 AM 47.4157 178.2884 242° Southwest 467 537 39,000  Level FlightAware Transoceanic
Sun 12:11:00 AM 47.3559 178.1194 242° Southwest 467 537 39,000  Level FlightAware Transoceanic
Sun 12:12:00 AM 47.2959 177.9507 242° Southwest 467 537 39,000  Level FlightAware Transoceanic
Sun 12:13:00 AM 47.2542 177.8492 242° Southwest 455 524 39,000  Level FlightAware Transoceanic
Sun 12:14:00 AM 47.1957 177.6865 242° Southwest 455 524 39,000  Level FlightAware Transoceanic
Sun 12:15:00 AM 47.1371 177.5241 242° Southwest 455 524 39,000  Level FlightAware Transoceanic
Sun 12:16:00 AM 47.0782 177.3620 242° Southwest 455 524 39,000  Level FlightAware Transoceanic
Sun 12:17:00 AM 47.0190 177.2004 242° Southwest 455 524 39,000  Level FlightAware Transoceanic
Sun 12:18:00 AM 46.9597 177.0390 242° Southwest 455 524 39,000  Level FlightAware Transoceanic
Sun 12:19:00 AM 46.9001 176.8781 241° Southwest 455 524 39,000  Level FlightAware Transoceanic
Sun 12:20:00 AM 46.8403 176.7175 241° Southwest 455 524 39,000  Level FlightAware Transoceanic
Sun 12:21:00 AM 46.7802 176.5572 241° Southwest 455 524 39,000  Level FlightAware Transoceanic
Sun 12:21:13 AM 46.8000 176.6000 241° Southwest 449 517 39,000  Level Oakland Oceanic (ODAPS)
Sun 12:22:00 AM 46.7200 176.3973 241° Southwest 455 524 39,000  Level FlightAware Transoceanic
Sun 12:23:00 AM 46.6595 176.2378 241° Southwest 455 524 39,000  Level FlightAware Transoceanic
Sun 12:24:00 AM 46.5988 176.0786 241° Southwest 455 524 39,000  Level FlightAware Transoceanic
Sun 12:25:00 AM 46.5378 175.9198 241° Southwest 455 524 39,000  Level FlightAware Transoceanic
Sun 12:26:00 AM 46.4767 175.7613 241° Southwest 455 524 39,000  Level FlightAware Transoceanic
Sun 12:27:00 AM 46.4327 175.6395 241° Southwest 449 517 39,000  Level FlightAware Transoceanic
Sun 12:28:00 AM 46.3707 175.4807 240° Southwest 449 517 39,000  Level FlightAware Transoceanic
Sun 12:29:00 AM 46.3084 175.3222 240° Southwest 449 517 39,000  Level FlightAware Transoceanic
Sun 12:30:00 AM 46.2460 175.1641 240° Southwest 449 517 39,000  Level FlightAware Transoceanic
Sun 12:31:00 AM 46.1833 175.0064 240° Southwest 449 517 39,000  Level FlightAware Transoceanic
Sun 12:32:00 AM 46.1205 174.8490 240° Southwest 449 517 39,000  Level FlightAware Transoceanic
Sun 12:33:00 AM 46.0574 174.6920 240° Southwest 449 517 39,000  Level FlightAware Transoceanic
Sun 12:34:00 AM 45.9941 174.5353 240° Southwest 449 517 39,000  Level FlightAware Transoceanic
Sun 12:35:00 AM 45.9306 174.3790 240° Southwest 449 517 39,000  Level FlightAware Transoceanic
Sun 12:35:07 AM 45.9500 174.4333 240° Southwest 448 516 39,000  Level Oakland Oceanic (ODAPS)
Sun 12:36:00 AM 45.8669 174.2231 240° Southwest 449 517 39,000  Level FlightAware Transoceanic
Sun 12:37:00 AM 45.8029 174.0675 239° Southwest 449 517 39,000  Level FlightAware Transoceanic
Sun 12:38:00 AM 45.7388 173.9122 239° Southwest 449 517 39,000  Level FlightAware Transoceanic
Sun 12:39:00 AM 45.6744 173.7574 239° Southwest 449 517 39,000  Level FlightAware Transoceanic
Sun 12:40:00 AM 45.6098 173.6029 239° Southwest 449 517 39,000  Level FlightAware Transoceanic
Sun 12:41:00 AM 45.5739 173.5224 239° Southwest 448 516 39,000  Level FlightAware Transoceanic
Sun 12:42:00 AM 45.5105 173.3718 239° Southwest 448 516 39,000  Level FlightAware Transoceanic
Sun 12:43:00 AM 45.4469 173.2215 239° Southwest 448 516 39,000  Level FlightAware Transoceanic
Sun 12:44:00 AM 45.3832 173.0716 239° Southwest 448 516 39,000  Level FlightAware Transoceanic
Sun 12:45:00 AM 45.3192 172.9220 239° Southwest 448 516 39,000  Level FlightAware Transoceanic
Sun 12:46:00 AM 45.2550 172.7727 239° Southwest 448 516 39,000  Level FlightAware Transoceanic
Sun 12:47:00 AM 45.1907 172.6237 238° Southwest 448 516 39,000  Level FlightAware Transoceanic
Sun 12:48:00 AM 45.1261 172.4751 238° Southwest 448 516 39,000  Level FlightAware Transoceanic
Sun 12:49:00 AM 45.0614 172.3269 238° Southwest 448 516 39,000  Level FlightAware Transoceanic
Sun 12:49:01 AM 45.0667 172.3333 238° Southwest 450 518 39,000  Level Oakland Oceanic (ODAPS)
Sun 12:50:00 AM 44.9964 172.1790 238° Southwest 448 516 39,000  Level FlightAware Transoceanic
Sun 12:51:00 AM 44.9313 172.0314 238° Southwest 448 516 39,000  Level FlightAware Transoceanic
Sun 12:52:00 AM 44.8660 171.8841 238° Southwest 448 516 39,000  Level FlightAware Transoceanic
Sun 12:53:00 AM 44.8005 171.7372 238° Southwest 448 516 39,000  Level FlightAware Transoceanic
Sun 12:54:00 AM 44.7348 171.5906 238° Southwest 448 516 39,000  Level FlightAware Transoceanic
Sun 12:55:00 AM 44.6457 171.3897 237° Southwest 450 518 39,000  Level FlightAware Transoceanic
Sun 12:56:00 AM 44.5748 171.2338 237° Southwest 450 518 39,000  Level FlightAware Transoceanic
Sun 12:57:00 AM 44.5037 171.0782 237° Southwest 450 518 39,000  Level FlightAware Transoceanic
Sun 12:58:00 AM 44.4324 170.9231 237° Southwest 450 518 39,000  Level FlightAware Transoceanic
Sun 12:59:00 AM 44.3608 170.7683 237° Southwest 450 518 39,000  Level FlightAware Transoceanic
Sun 01:00:00 AM 44.2891 170.6139 237° Southwest 450 518 39,000  Level FlightAware Transoceanic
Sun 01:01:00 AM 44.2171 170.4599 237° Southwest 450 518 39,000  Level FlightAware Transoceanic
Sun 01:02:00 AM 44.1449 170.3062 237° Southwest 450 518 39,000  Level FlightAware Transoceanic
Sun 01:02:48 AM 44.1333 170.2833 237° Southwest 438 504 39,000  Level Oakland Oceanic (ODAPS)
Sun 01:03:00 AM 44.0726 170.1529 237° Southwest 450 518 39,000  Level FlightAware Transoceanic
Sun 01:04:00 AM 44.0000 170.0000 245° Southwest 450 518 39,000  Level FlightAware Transoceanic
Sun 01:04:49 AM 44.0000 170.0000 245° Southwest 433 498 39,000  Level Oakland Oceanic (ODAPS)
Sun 01:05:00 AM 43.9506 169.8524 245° Southwest 450 518 39,000  Level FlightAware Transoceanic
Sun 01:06:00 AM 43.9011 169.7051 245° Southwest 450 518 39,000  Level FlightAware Transoceanic
Sun 01:07:00 AM 43.8514 169.5580 245° Southwest 450 518 39,000  Level FlightAware Transoceanic
Sun 01:08:00 AM 43.8015 169.4112 245° Southwest 450 518 39,000  Level FlightAware Transoceanic
Sun 01:09:00 AM 43.8015 169.4112 245° Southwest 438 504 39,000  Level FlightAware Transoceanic
Sun 01:10:00 AM 43.7514 169.2646 245° Southwest 438 504 39,000  Level FlightAware Transoceanic
Sun 01:11:00 AM 43.6924 169.0932 244° Southwest 433 498 39,000  Level FlightAware Transoceanic
Sun 01:12:00 AM 43.6405 168.9430 244° Southwest 433 498 39,000  Level FlightAware Transoceanic
Sun 01:13:00 AM 43.5883 168.7930 244° Southwest 433 498 39,000  Level FlightAware Transoceanic
Sun 01:14:00 AM 43.5360 168.6433 244° Southwest 433 498 39,000  Level FlightAware Transoceanic
Sun 01:15:00 AM 43.4834 168.4939 244° Southwest 433 498 39,000  Level FlightAware Transoceanic
Sun 01:16:00 AM 43.4307 168.3447 244° Southwest 433 498 39,000  Level FlightAware Transoceanic
Sun 01:16:40 AM 43.4000 168.2833 244° Southwest 424 488 39,000  Level Oakland Oceanic (ODAPS)
Sun 01:17:00 AM 43.3778 168.1958 244° Southwest 433 498 39,000  Level FlightAware Transoceanic
Sun 01:18:00 AM 43.3246 168.0471 244° Southwest 433 498 39,000  Level FlightAware Transoceanic
Sun 01:19:00 AM 43.2713 167.8987 244° Southwest 433 498 39,000  Level FlightAware Transoceanic
Sun 01:20:00 AM 43.2178 167.7506 244° Southwest 433 498 39,000  Level FlightAware Transoceanic
Sun 01:21:00 AM 43.1641 167.6027 243° Southwest 433 498 39,000  Level FlightAware Transoceanic
Sun 01:22:00 AM 43.0876 167.4153 243° Southwest 424 488 39,000  Level FlightAware Transoceanic
Sun 01:23:00 AM 43.0349 167.2715 243° Southwest 424 488 39,000  Level FlightAware Transoceanic
Sun 01:24:00 AM 42.9820 167.1279 243° Southwest 424 488 39,000  Level FlightAware Transoceanic
Sun 01:25:00 AM 42.9289 166.9846 243° Southwest 424 488 39,000  Level FlightAware Transoceanic
Sun 01:26:00 AM 42.8757 166.8415 243° Southwest 424 488 39,000  Level FlightAware Transoceanic
Sun 01:27:00 AM 42.8223 166.6987 243° Southwest 424 488 39,000  Level FlightAware Transoceanic
Sun 01:28:00 AM 42.7687 166.5562 243° Southwest 424 488 39,000  Level FlightAware Transoceanic
Sun 01:29:00 AM 42.7149 166.4138 243° Southwest 424 488 39,000  Level FlightAware Transoceanic
Sun 01:30:00 AM 42.6610 166.2717 243° Southwest 424 488 39,000  Level FlightAware Transoceanic
Sun 01:30:43 AM 42.6833 166.3167 243° Southwest 428 493 39,000  Level Oakland Oceanic (ODAPS)
Sun 01:31:00 AM 42.6068 166.1299 243° Southwest 424 488 39,000  Level FlightAware Transoceanic
Sun 01:32:00 AM 42.5525 165.9883 242° Southwest 424 488 39,000  Level FlightAware Transoceanic
Sun 01:33:00 AM 42.4981 165.8470 242° Southwest 424 488 39,000  Level FlightAware Transoceanic
Sun 01:34:00 AM 42.4434 165.7059 242° Southwest 424 488 39,000  Level FlightAware Transoceanic
Sun 01:35:00 AM 42.3886 165.5650 242° Southwest 424 488 39,000  Level FlightAware Transoceanic
Sun 01:36:00 AM 42.3336 165.4245 242° Southwest 424 488 39,000  Level FlightAware Transoceanic
Sun 01:36:14 AM 42.4000 165.5667 242° Southwest 428 493 39,000  Level Oakland Oceanic (ODAPS)
Sun 01:37:00 AM 42.2977 165.3217 242° Southwest 428 493 39,000  Level FlightAware Transoceanic
Sun 01:38:00 AM 42.2420 165.1805 242° Southwest 428 493 39,000  Level FlightAware Transoceanic
Sun 01:39:00 AM 42.1860 165.0396 242° Southwest 428 493 39,000  Level FlightAware Transoceanic
Sun 01:40:00 AM 42.1299 164.8990 242° Southwest 428 493 39,000  Level FlightAware Transoceanic
Sun 01:41:00 AM 42.0736 164.7586 242° Southwest 428 493 39,000  Level FlightAware Transoceanic
Sun 01:42:00 AM 42.0095 164.5872 241° Southwest 428 493 39,000  Level FlightAware Transoceanic
Sun 01:43:00 AM 41.9531 164.4483 241° Southwest 428 493 39,000  Level FlightAware Transoceanic
Sun 01:44:00 AM 41.8965 164.3096 241° Southwest 428 493 39,000  Level FlightAware Transoceanic
Sun 01:45:00 AM 41.8397 164.1711 241° Southwest 428 493 39,000  Level FlightAware Transoceanic
Sun 01:46:00 AM 41.7827 164.0329 241° Southwest 428 493 39,000  Level FlightAware Transoceanic
Sun 01:47:00 AM 41.7256 163.8950 241° Southwest 428 493 39,000  Level FlightAware Transoceanic
Sun 01:48:00 AM 41.6683 163.7573 241° Southwest 428 493 39,000  Level FlightAware Transoceanic
Sun 01:49:00 AM 41.6109 163.6198 241° Southwest 428 493 39,000  Level FlightAware Transoceanic
Sun 01:50:00 AM 41.5533 163.4826 241° Southwest 428 493 39,000  Level FlightAware Transoceanic
Sun 01:51:00 AM 41.4955 163.3456 241° Southwest 428 493 39,000  Level FlightAware Transoceanic
Sun 01:52:00 AM 41.4376 163.2089 240° Southwest 428 493 39,000  Level FlightAware Transoceanic
Sun 01:53:00 AM 41.3795 163.0724 240° Southwest 428 493 39,000  Level FlightAware Transoceanic
Sun 01:54:00 AM 41.3212 162.9362 240° Southwest 428 493 39,000  Level FlightAware Transoceanic
Sun 01:55:00 AM 41.2628 162.8002 240° Southwest 428 493 39,000  Level FlightAware Transoceanic
Sun 01:56:00 AM 41.2042 162.6644 240° Southwest 428 493 39,000  Level FlightAware Transoceanic
Sun 01:57:00 AM 41.1455 162.5289 240° Southwest 428 493 39,000  Level FlightAware Transoceanic
Sun 01:58:00 AM 41.0866 162.3936 240° Southwest 428 493 39,000  Level FlightAware Transoceanic
Sun 01:59:00 AM 41.0275 162.2586 240° Southwest 428 493 39,000  Level FlightAware Transoceanic
Sun 02:00:00 AM 40.9683 162.1238 240° Southwest 428 493 39,000  Level FlightAware Transoceanic
Sun 02:01:00 AM 40.9089 161.9893 240° Southwest 428 493 39,000  Level FlightAware Transoceanic
Sun 02:02:00 AM 40.8494 161.8550 240° Southwest 428 493 39,000  Level FlightAware Transoceanic
Sun 02:03:00 AM 40.7897 161.7209 239° Southwest 428 493 39,000  Level FlightAware Transoceanic
Sun 02:04:00 AM 40.7299 161.5871 239° Southwest 428 493 39,000  Level FlightAware Transoceanic
Sun 02:05:00 AM 40.6699 161.4535 239° Southwest 428 493 39,000  Level FlightAware Transoceanic
Sun 02:06:00 AM 40.6097 161.3202 239° Southwest 428 493 39,000  Level FlightAware Transoceanic
Sun 02:07:00 AM 40.5495 161.1871 239° Southwest 428 493 39,000  Level FlightAware Transoceanic
Sun 02:08:00 AM 40.4890 161.0542 239° Southwest 428 493 39,000  Level FlightAware Transoceanic
Sun 02:09:00 AM 40.4284 160.9216 239° Southwest 428 493 39,000  Level FlightAware Transoceanic
Sun 02:10:00 AM 40.3677 160.7893 239° Southwest 428 493 39,000  Level FlightAware Transoceanic
Sun 02:11:00 AM 40.3068 160.6571 239° Southwest 428 493 39,000  Level FlightAware Transoceanic
Sun 02:12:00 AM 40.2457 160.5252 239° Southwest 428 493 39,000  Level FlightAware Transoceanic
Sun 02:13:00 AM 40.1845 160.3936 239° Southwest 428 493 39,000  Level FlightAware Transoceanic
Sun 02:14:00 AM 40.1231 160.2621 239° Southwest 428 493 39,000  Level FlightAware Transoceanic
Sun 02:15:00 AM 40.0616 160.1310 238° Southwest 428 493 39,000  Level FlightAware Transoceanic
Sun 02:16:00 AM 40.0000 160.0000 252° West 428 493 39,000  Level FlightAware Transoceanic
Sun 02:17:00 AM 39.9648 159.8575 252° West 428 493 39,000  Level FlightAware Transoceanic
Sun 02:18:00 AM 39.9295 159.7151 252° West 428 493 39,000  Level FlightAware Transoceanic
Sun 02:19:00 AM 39.8940 159.5729 252° West 428 493 39,000  Level FlightAware Transoceanic
Sun 02:20:00 AM 39.8583 159.4308 252° West 428 493 39,000  Level FlightAware Transoceanic
Sun 02:21:00 AM 39.8224 159.2888 252° West 428 493 39,000  Level FlightAware Transoceanic
Sun 02:22:00 AM 39.7864 159.1471 252° West 428 493 39,000  Level FlightAware Transoceanic
Sun 02:23:00 AM 39.7502 159.0054 252° West 428 493 39,000  Level FlightAware Transoceanic
Sun 02:24:00 AM 39.7138 158.8639 251° West 428 493 39,000  Level FlightAware Transoceanic
Sun 02:25:00 AM 39.6772 158.7226 251° West 428 493 39,000  Level FlightAware Transoceanic
Sun 02:26:00 AM 39.6405 158.5814 251° West 428 493 39,000  Level FlightAware Transoceanic
Sun 02:27:00 AM 39.6036 158.4404 251° West 428 493 39,000  Level FlightAware Transoceanic
Sun 02:28:00 AM 39.5666 158.2995 251° West 428 493 39,000  Level FlightAware Transoceanic
Sun 02:29:00 AM 39.5293 158.1588 251° West 428 493 39,000  Level FlightAware Transoceanic
Sun 02:30:00 AM 39.4919 158.0182 251° West 428 493 39,000  Level FlightAware Transoceanic
Sun 02:31:00 AM 39.4543 157.8777 251° West 428 493 39,000  Level FlightAware Transoceanic
Sun 02:32:00 AM 39.4166 157.7375 251° West 428 493 39,000  Level FlightAware Transoceanic
Sun 02:33:00 AM 39.3787 157.5973 251° West 428 493 39,000  Level FlightAware Transoceanic
Sun 02:34:00 AM 39.3406 157.4573 251° West 428 493 39,000  Level FlightAware Transoceanic
Sun 02:35:00 AM 39.3024 157.3175 250° West 428 493 39,000  Level FlightAware Transoceanic
Sun 02:36:00 AM 39.2640 157.1778 250° West 428 493 39,000  Level FlightAware Transoceanic
Sun 02:37:00 AM 39.2254 157.0383 250° West 428 493 39,000  Level FlightAware Transoceanic
Sun 02:38:00 AM 39.1866 156.8990 250° West 428 493 39,000  Level FlightAware Transoceanic
Sun 02:39:00 AM 39.1477 156.7598 250° West 428 493 39,000  Level FlightAware Transoceanic
Sun 02:40:00 AM 39.1087 156.6207 250° West 428 493 39,000  Level FlightAware Transoceanic
Sun 02:41:00 AM 39.0694 156.4818 250° West 428 493 39,000  Level FlightAware Transoceanic
Sun 02:42:00 AM 39.0300 156.3430 250° West 428 493 39,000  Level FlightAware Transoceanic
Sun 02:43:00 AM 38.9904 156.2045 250° West 428 493 39,000  Level FlightAware Transoceanic
Sun 02:44:00 AM 38.9507 156.0660 250° West 428 493 39,000  Level FlightAware Transoceanic
Sun 02:45:00 AM 38.9108 155.9277 250° West 428 493 39,000  Level FlightAware Transoceanic
Sun 02:46:00 AM 38.8708 155.7896 250° West 428 493 39,000  Level FlightAware Transoceanic
Sun 02:47:00 AM 38.8305 155.6516 249° West 428 493 39,000  Level FlightAware Transoceanic
Sun 02:48:00 AM 38.7901 155.5138 249° West 428 493 39,000  Level FlightAware Transoceanic
Sun 02:49:00 AM 38.7496 155.3762 249° West 428 493 39,000  Level FlightAware Transoceanic
Sun 02:50:00 AM 38.7089 155.2387 249° West 428 493 39,000  Level FlightAware Transoceanic
Sun 02:51:00 AM 38.6680 155.1013 249° West 428 493 39,000  Level FlightAware Transoceanic
Sun 02:52:00 AM 38.6270 154.9641 249° West 428 493 39,000  Level FlightAware Transoceanic
Sun 02:53:00 AM 38.5858 154.8271 249° West 428 493 39,000  Level FlightAware Transoceanic
Sun 02:54:00 AM 38.5445 154.6902 249° West 428 493 39,000  Level FlightAware Transoceanic
Sun 02:55:00 AM 38.5029 154.5535 249° West 428 493 39,000  Level FlightAware Transoceanic
Sun 02:56:00 AM 38.4613 154.4169 249° West 428 493 39,000  Level FlightAware Transoceanic
Sun 02:57:00 AM 38.4195 154.2805 249° West 428 493 39,000  Level FlightAware Transoceanic
Sun 02:58:00 AM 38.3775 154.1443 248° West 428 493 39,000  Level FlightAware Transoceanic
Sun 02:59:00 AM 38.3353 154.0082 248° West 428 493 39,000  Level FlightAware Transoceanic
Sun 03:00:00 AM 38.2930 153.8723 248° West 428 493 39,000  Level FlightAware Transoceanic
Sun 03:01:00 AM 38.2506 153.7365 248° West 428 493 39,000  Level FlightAware Transoceanic
Sun 03:02:00 AM 38.2080 153.6009 248° West 428 493 39,000  Level FlightAware Transoceanic
Sun 03:03:00 AM 38.1652 153.4655 248° West 428 493 39,000  Level FlightAware Transoceanic
Sun 03:04:00 AM 38.1223 153.3302 248° West 428 493 39,000  Level FlightAware Transoceanic
Sun 03:05:00 AM 38.0792 153.1951 248° West 428 493 39,000  Level FlightAware Transoceanic
Sun 03:06:00 AM 38.0360 153.0601 248° West 428 493 39,000  Level FlightAware Transoceanic
Sun 03:07:00 AM 37.9926 152.9253 248° West 428 493 39,000  Level FlightAware Transoceanic
Sun 03:08:00 AM 37.9491 152.7906 248° West 428 493 39,000  Level FlightAware Transoceanic
Sun 03:09:00 AM 37.9054 152.6561 248° West 428 493 39,000  Level FlightAware Transoceanic
Sun 03:10:00 AM 37.8615 152.5218 247° West 428 493 39,000  Level FlightAware Transoceanic
Sun 03:11:00 AM 37.8175 152.3876 247° West 428 493 39,000  Level FlightAware Transoceanic
Sun 03:12:00 AM 37.7734 152.2536 247° West 428 493 39,000  Level FlightAware Transoceanic
Sun 03:13:00 AM 37.7291 152.1198 247° West 428 493 39,000  Level FlightAware Transoceanic
Sun 03:14:00 AM 37.6846 151.9861 247° West 428 493 39,000  Level FlightAware Transoceanic
Sun 03:15:00 AM 37.6400 151.8525 247° West 428 493 39,000  Level FlightAware Transoceanic
Sun 03:16:00 AM 37.5953 151.7192 247° West 428 493 39,000  Level FlightAware Transoceanic
Sun 03:17:00 AM 37.5504 151.5860 247° West 428 493 39,000  Level FlightAware Transoceanic
Sun 03:18:00 AM 37.5053 151.4529 247° West 428 493 39,000  Level FlightAware Transoceanic
Sun 03:19:00 AM 37.4601 151.3200 247° West 428 493 39,000  Level FlightAware Transoceanic
Sun 03:20:00 AM 37.4148 151.1873 247° West 428 493 39,000  Level FlightAware Transoceanic
Sun 03:21:00 AM 37.3693 151.0547 247° West 428 493 39,000  Level FlightAware Transoceanic
Sun 03:22:00 AM 37.3236 150.9223 247° West 428 493 39,000  Level FlightAware Transoceanic
Sun 03:23:00 AM 37.2778 150.7901 246° West 428 493 39,000  Level FlightAware Transoceanic
Sun 03:24:00 AM 37.2319 150.6580 246° West 428 493 39,000  Level FlightAware Transoceanic
Sun 03:25:00 AM 37.1858 150.5261 246° West 428 493 39,000  Level FlightAware Transoceanic
Sun 03:26:00 AM 37.1396 150.3943 246° West 428 493 39,000  Level FlightAware Transoceanic
Sun 03:27:00 AM 37.0932 150.2627 246° West 428 493 39,000  Level FlightAware Transoceanic
Sun 03:28:00 AM 37.0467 150.1313 246° West 428 493 39,000 48 Level FlightAware Transoceanic
Sun 03:29:00 AM 36.9948 149.9855 246° West  Level FlightAware Approximate
Sun 03:30:00 AM 36.9978 149.9684 265° West  Level FlightAware Approximate
Sun 03:31:00 AM 36.9866 149.8095 265° West  Level FlightAware Approximate
Sun 03:32:00 AM 36.9752 149.6507 265° West  Level FlightAware Approximate
Sun 03:33:00 AM 36.9636 149.4919 265° West  Level FlightAware Approximate
Sun 03:34:00 AM 36.9517 149.3332 265° West  Level FlightAware Approximate
Sun 03:35:00 AM 36.9397 149.1745 265° West  Level FlightAware Approximate
Sun 03:36:00 AM 36.9274 149.0158 265° West  Level FlightAware Approximate
Sun 03:37:00 AM 36.9150 148.8572 264° West  Level FlightAware Approximate
Sun 03:38:00 AM 36.9023 148.6987 264° West  Level FlightAware Approximate
Sun 03:39:00 AM 36.8894 148.5402 264° West  Level FlightAware Approximate
Sun 03:40:00 AM 36.8659 148.3842 255° West  Level FlightAware Approximate
Sun 03:41:00 AM 36.8332 148.2303 255° West  Level FlightAware Approximate
Sun 03:42:00 AM 36.8003 148.0766 255° West  Level FlightAware Approximate
Sun 03:43:00 AM 36.7673 147.9230 255° West  Level FlightAware Approximate
Sun 03:44:00 AM 36.7340 147.7695 255° West  Level FlightAware Approximate
Sun 03:45:00 AM 36.7005 147.6161 255° West  Level FlightAware Approximate
Sun 03:46:00 AM 36.6668 147.4629 255° West  Level FlightAware Approximate
Sun 03:47:00 AM 36.6330 147.3099 255° West  Level FlightAware Approximate
Sun 03:48:00 AM 36.5989 147.1569 255° West  Level FlightAware Approximate
Sun 03:49:00 AM 36.5647 147.0041 254° West  Level FlightAware Approximate
Sun 03:50:00 AM 36.5302 146.8515 254° West  Level FlightAware Approximate
Sun 03:51:00 AM 36.4955 146.6989 254° West  Level FlightAware Approximate
Sun 03:52:00 AM 36.4607 146.5465 254° West  Level FlightAware Approximate
Sun 03:53:00 AM 36.4257 146.3943 254° West  Level FlightAware Approximate
Sun 03:54:00 AM 36.3872 146.2435 248° West  Level FlightAware Approximate
Sun 03:55:00 AM 36.3399 146.0966 248° West  Level FlightAware Approximate
Sun 03:56:00 AM 36.2924 145.9499 248° West  Level FlightAware Approximate
Sun 03:57:00 AM 36.2447 145.8034 248° West  Level FlightAware Approximate
Sun 03:58:00 AM 36.1975 145.6568 253° West  Level FlightAware Approximate
Sun 03:59:00 AM 36.1599 145.5060 253° West  Level FlightAware Approximate
Sun 04:00:00 AM 36.1317 145.3523 259° West  Level FlightAware Approximate
Sun 04:01:00 AM 36.1068 145.1976 259° West  Level FlightAware Approximate
Sun 04:02:00 AM 36.0816 145.0431 259° West  Level FlightAware Approximate
Sun 04:03:00 AM 36.0563 144.8886 259° West  Level FlightAware Approximate
Sun 04:04:00 AM 36.0308 144.7343 258° West  Level FlightAware Approximate
Sun 04:05:00 AM 36.0051 144.5800 258° West  Level FlightAware Approximate
Sun 04:06:00 AM 35.9794 144.4272 258° West  Level FlightAware Approximate
Sun 04:07:00 AM 35.9535 144.2745 258° West  Level FlightAware Approximate
Sun 04:08:00 AM 35.9274 144.1219 258° West  Level FlightAware Approximate
Sun 04:08:42 AM 36.0930 144.5810 258° West 397 457 41,000  Level FlightAware ADS-B
Sun 04:09:00 AM 35.9011 143.9693 258° West  Level FlightAware Approximate
Sun 04:09:22 AM 36.0890 144.4910 267° West 396 456 41,000  Level FlightAware ADS-B
Sun 04:10:27 AM 36.0820 144.3440 267° West 393 452 41,000  Level FlightAware ADS-B
Sun 04:10:57 AM 36.0790 144.2850 266° West 391 450 41,000  Level FlightAware ADS-B
Sun 04:11:58 AM 36.0740 144.1690 267° West 391 450 41,000  Level FlightAware ADS-B
Sun 04:12:46 AM 36.0700 144.0780 267° West 391 450 41,000  Level FlightAware ADS-B
Sun 04:13:22 AM 36.0620 143.9550 265° West 447 514 41,000  Level FlightAware ADS-B
Sun 04:14:09 AM 36.0570 143.8600 266° West 41,000  Level FlightAware ADS-B
Sun 04:15:12 AM 36.0490 143.7150 266° West 395 455 41,000  Level FlightAware ADS-B
Sun 04:15:47 AM 36.0440 143.6280 266° West 391 450 41,000  Level FlightAware ADS-B
Sun 04:16:37 AM 36.0380 143.5240 266° West 389 448 41,000  Level FlightAware ADS-B
Sun 04:17:30 AM 36.0310 143.4120 266° West 390 449 41,000  Level FlightAware ADS-B
Sun 04:18:06 AM 36.0260 143.3290 266° West 389 448 41,000  Level FlightAware ADS-B
Sun 04:19:07 AM 36.0180 143.1970 266° West 388 447 41,000  Level FlightAware ADS-B
Sun 04:19:38 AM 36.0130 143.1210 265° West 387 445 41,000  Level FlightAware ADS-B
Sun 04:20:18 AM 36.0070 143.0350 265° West 388 447 41,000  Level FlightAware ADS-B
Sun 04:21:12 AM 36.0000 142.9150 266° West 387 445 41,000  Level FlightAware ADS-B
Sun 04:21:47 AM 35.9950 142.8370 265° West 385 443 41,000 -197 Level FlightAware ADS-B
Sun 04:22:13 AM 35.9910 142.7810 265° West 376 433 40,800 -733 Descending FlightAware ADS-B
Sun 04:23:17 AM 35.9820 142.6460 265° West 364 419 39,900 -1,102 Descending FlightAware ADS-B
Sun 04:23:51 AM 35.9770 142.5760 265° West 367 422 39,000 -1,754 Descending FlightAware ADS-B
Sun 04:24:22 AM 35.9730 142.5100 266° West 376 433 38,000 -1,967 Descending FlightAware ADS-B
Sun 04:24:52 AM 35.9680 142.4490 264° West 384 442 37,000 -1,800 Descending FlightAware ADS-B
Sun 04:25:22 AM 35.9640 142.3810 266° West 389 448 36,200 -1,663 Descending FlightAware ADS-B
Sun 04:26:15 AM 35.9570 142.2760 265° West 387 445 34,700 -2,318 Descending FlightAware ADS-B
Sun 04:26:50 AM 35.9510 142.1900 265° West 389 448 32,800 -3,238 Descending FlightAware ADS-B
Sun 04:27:18 AM 35.9460 142.1250 265° West 387 445 31,300 -3,293 Descending FlightAware ADS-B
Sun 04:28:12 AM 35.9370 142.0000 265° West 403 464 28,300 -3,286 Descending FlightAware ADS-B
Sun 04:28:42 AM 35.9320 141.9310 265° West 405 466 26,700 -3,176 Descending FlightAware ADS-B
Sun 04:29:37 AM 35.9230 141.8040 265° West 403 464 23,800 -3,176 Descending FlightAware ADS-B
Sun 04:30:07 AM 35.9180 141.7380 265° West 400 460 22,200 -3,040 Descending FlightAware ADS-B
Sun 04:30:52 AM 35.9100 141.6350 265° West 391 450 20,000 -2,800 Descending FlightAware ADS-B
Sun 04:31:22 AM 35.9050 141.5770 264° West 386 444 18,700 -2,687 Descending FlightAware ADS-B
Sun 04:31:59 AM 35.9000 141.5000 265° West 378 435 17,000 -2,824 Descending FlightAware ADS-B
Sun 04:32:30 AM 35.8940 141.4280 264° West 372 428 15,500 -2,833 Descending FlightAware ADS-B
Sun 04:33:11 AM 35.8870 141.3410 264° West 368 423 13,600 -2,657 Descending FlightAware ADS-B
Sun 04:33:40 AM 35.8830 141.2830 265° West 367 422 12,400 -2,136 Descending FlightAware ADS-B
Sun 04:34:10 AM 35.8790 141.2300 265° West 366 421 11,500 -1,385 Descending FlightAware ADS-B
Sun 04:34:58 AM 35.8700 141.1270 264° West 328 377 10,600 -1,000 Descending FlightAware ADS-B
Sun 04:35:34 AM 35.8650 141.0620 265° West 301 346 10,100 -677 Descending FlightAware ADS-B
Sun 04:36:00 AM 35.8620 141.0250 264° West 272 313 9,900 -923 Descending FlightAware ADS-B
Sun 04:36:26 AM 35.8580 140.9770 264° West 273 314 9,300 -1,455 Descending FlightAware ADS-B
Sun 04:37:06 AM 35.8400 140.9210 248° West 277 319 8,300 -1,275 Descending FlightAware ADS-B
Sun 04:37:46 AM 35.8050 140.8830 221° Southwest 281 323 7,600 -1,200 Descending FlightAware ADS-B
Sun 04:38:11 AM 35.7780 140.8520 223° Southwest 275 316 7,000 -1,219 Descending FlightAware ADS-B
Sun 04:38:50 AM 35.7420 140.8090 224° Southwest 274 315 6,300 -971 Descending FlightAware ADS-B
Sun 04:39:19 AM 35.7170 140.7800 223° Southwest 264 304 5,900 -1,114 Descending FlightAware ADS-B
Sun 04:40:00 AM 35.6760 140.7380 220° Southwest 258 297 5,000 -1,406 Descending FlightAware ADS-B
Sun 04:40:23 AM 35.6560 140.7170 220° Southwest 264 304 4,400 -1,304 Descending FlightAware ADS-B
Sun 04:41:09 AM 35.6140 140.6700 222° Southwest 262 302 3,500 -867 Descending FlightAware ADS-B
Sun 04:41:46 AM 35.5860 140.6290 230° Southwest 242 278 3,200 -525 Descending FlightAware ADS-B
Sun 04:42:29 AM 35.5680 140.5790 246° West 224 258 2,800 -231 Descending FlightAware ADS-B
Sun 04:43:04 AM 35.5820 140.5380 293° West 183 211 2,900 169 Climbing FlightAware ADS-B
Sun 04:43:40 AM 35.6070 140.5210 331° Northwest 159 183 3,000  Climbing FlightAware ADS-B
Sun 04:44:08 AM 35.6240 140.5090 330° Northwest 155 178 2,900 -88 Descending FlightAware ADS-B
Sun 04:44:48 AM 35.6490 140.4910 330° Northwest 155 178 2,900 -237 Level FlightAware ADS-B
Sun 04:45:24 AM 35.6720 140.4740 329° Northwest 157 181 2,600 -618 Descending FlightAware ADS-B
Sun 04:45:56 AM 35.6910 140.4600 329° Northwest 154 177 2,200 -844 Descending FlightAware ADS-B
Sun 04:46:28 AM 35.7110 140.4460 330° Northwest 150 173 1,700 -806 Descending FlightAware ADS-B
Sun 04:47:03 AM 35.7310 140.4310 329° Northwest 132 152 1,300 -514 Descending FlightAware ADS-B
Sun 04:47:38 AM 35.7470 140.4200 331° Northwest 126 145 1,100 -673 Descending FlightAware ADS-B
Sun 04:48:50 AM 35.7850 140.3930 330° Northwest 128 147 100 -600 Descending FlightAware ADS-B
Sun 04:49:18 AM 35.7970 140.3840 329° Northwest 128 147 100  Level FlightAware ADS-B

Login

Don't have an account? Register now (free) for customized features, flight alerts, and more!